User Preferences

Timezone
Units
Lat/Lon format
Defaults

Geo and time bounds

227 - OCULINA BANK NORTH, FL   Status:DECOMMISSIONED   Notice:09/06/2017 Station decommissioned
1488 records
Date
(UTC)
Hs
(ft)
Tp
(s)
Dp
(deg)
Ta
(s)
SST
(F)
Current sp
(kt)
Current dir
(deg)
2017-05-31 23:30 2.49 3.28 135 3.04 81.1 1.73 7.0
2017-05-31 23:00 2.49 7.41 92 3.05 81.3 1.85 8.0
2017-05-31 22:30 2.36 8.00 93 2.99 81.5 1.85 6.0
2017-05-31 22:00 2.23 3.08 129 2.95 81.9 1.85 3.0
2017-05-31 21:30 2.23 13.33 82 3.06 82.2 2.00 8.0
2017-05-31 21:00 2.17 8.00 90 3.07 82.2 2.00 4.0
2017-05-31 20:30 2.13 8.00 92 3.07 82.2 1.90 1.0
2017-05-31 20:00 2.00 7.41 89 3.06 81.9 1.57 355.0
2017-05-31 19:30 2.00 3.85 138 3.20 81.3 1.81 359.0
2017-05-31 19:00 1.84 4.17 142 3.28 80.1 1.65 5.0
2017-05-31 18:30 1.77 7.41 89 3.34 80.8 0.51 355.0
2017-05-31 18:00 1.74 8.00 96 3.41 80.4 0.41 5.0
2017-05-31 17:30 1.67 8.00 82 3.55 80.6 0.31 21.0
2017-05-31 17:00 1.71 8.00 88 3.83 80.4 0.23 2.0
2017-05-31 16:30 1.67 8.00 93 3.58 80.1 0.14 10.0
2017-05-31 16:00 1.77 7.69 92 3.59 79.9 0.16 38.0
2017-05-31 15:30 1.87 8.33 90 3.77 79.7 0.25 23.0
2017-05-31 15:00 1.80 8.00 85 3.57 79.5 0.23 26.0
2017-05-31 14:30 1.80 8.33 94 3.56 79.3 0.23 16.0
2017-05-31 14:00 1.87 8.70 86 3.67 79.2 0.23 28.0
2017-05-31 13:30 1.84 7.69 92 3.75 79.0 0.17 50.0
2017-05-31 13:00 1.94 8.00 89 3.68 79.0 0.29 36.0
2017-05-31 12:30 1.97 8.33 94 3.78 79.2 0.19 43.0
2017-05-31 12:00 1.87 3.57 107 3.73 79.0 0.12 14.0
2017-05-31 11:30 1.90 3.64 102 3.67 79.0 0.21 59.0
2017-05-31 11:00 1.97 3.51 107 3.66 79.0 0.27 39.0
2017-05-31 10:30 1.84 8.33 92 3.77 79.2 0.25 55.0
2017-05-31 10:00 1.87 3.57 101 3.72 79.2 0.31 46.0
2017-05-31 09:30 1.97 3.33 112 3.65 79.0 0.37 41.0
2017-05-31 09:00 1.94 3.33 113 3.70 79.0 0.39 39.0
2017-05-31 08:30 1.97 8.33 82 3.59 79.0 0.37 27.0
2017-05-31 08:00 1.97 3.45 128 3.49 79.0 0.37 14.0
2017-05-31 07:30 1.97 3.33 130 3.57 79.0 0.43 16.0
2017-05-31 07:00 2.07 3.28 125 3.29 79.2 0.49 12.0
2017-05-31 06:30 1.94 3.23 135 3.43 79.0 0.45 21.0
2017-05-31 06:00 1.94 3.28 124 3.48 79.2 0.39 16.0
2017-05-31 05:30 1.90 3.28 133 3.43 79.2 0.45 13.0
2017-05-31 05:00 1.94 3.23 136 3.40 79.2 0.23 22.0
2017-05-31 04:30 2.00 3.64 124 3.32 79.3 0.35 14.0
2017-05-31 04:00 1.97 3.33 129 3.33 79.5 0.47 16.0
2017-05-31 03:30 2.03 3.45 130 3.16 79.5 0.37 357.0
2017-05-31 03:00 2.13 3.39 131 3.20 79.3 0.51 356.0
2017-05-31 02:30 2.17 3.08 132 3.02 79.3 0.49 354.0
2017-05-31 02:00 2.26 3.28 133 3.03 79.3 0.54 359.0
2017-05-31 01:30 2.17 3.17 132 3.00 79.7 0.45 339.0
2017-05-31 01:00 2.20 3.28 135 3.08 79.9 0.66 344.0
2017-05-31 00:30 1.97 3.08 137 3.04 79.7 0.37 333.0
2017-05-31 00:00 1.77 2.78 137 3.00 79.9 0.37 338.0
2017-05-30 23:30 1.61 7.14 86 3.14 80.2 0.17 328.0
2017-05-30 23:00 1.51 7.41 89 3.36 80.8 0.16 10.0
2017-05-30 22:30 1.25 7.69 88 3.84 81.0 0.06 2.0
2017-05-30 22:00 1.18 7.41 87 4.28 81.3 0.08 70.0
2017-05-30 21:30 1.21 8.33 82 4.53 81.5 0.23 66.0
2017-05-30 21:00 1.15 7.41 81 4.59 81.7 0.14 73.0
2017-05-30 20:30 1.18 6.90 84 4.47 82.2 0.17 59.0
2017-05-30 20:00 1.18 7.41 85 4.31 82.6 0.25 62.0
2017-05-30 19:30 1.21 7.69 83 4.59 82.6 0.31 49.0
2017-05-30 19:00 1.15 7.41 83 4.49 82.6 0.23 73.0
2017-05-30 18:30 1.15 8.33 82 4.39 81.9 0.19 80.0
2017-05-30 18:00 1.08 7.69 89 4.04 81.0 0.12 68.0
2017-05-30 17:30 1.21 9.09 90 4.03 80.2 0.37 72.0
2017-05-30 17:00 1.18 8.00 83 3.88 79.2 0.21 93.0
2017-05-30 16:30 1.21 7.69 91 3.76 78.4 0.21 104.0
2017-05-30 16:00 1.18 8.00 87 3.71 78.3 0.17 125.0
2017-05-30 15:30 1.25 8.33 89 3.83 78.1 0.17 114.0
2017-05-30 15:00 1.21 8.00 89 3.81 77.9 0.19 134.0
2017-05-30 14:30 1.25 7.69 88 3.69 77.4 0.10 109.0
2017-05-30 14:00 1.28 8.00 92 3.50 77.2 0.16 136.0
2017-05-30 13:30 1.18 7.69 101 3.53 77.0 0.10 95.0
2017-05-30 13:00 1.28 7.69 97 3.78 77.0 0.17 124.0
2017-05-30 12:30 1.21 7.69 96 3.66 76.8 0.17 136.0
2017-05-30 12:00 1.35 8.00 94 3.85 76.8 0.25 77.0
2017-05-30 11:30 1.35 2.90 127 3.67 76.5 0.19 112.0
2017-05-30 11:00 1.35 8.33 92 3.76 76.5 0.23 130.0
2017-05-30 10:30 1.44 8.00 96 3.83 76.3 0.27 90.0
2017-05-30 10:00 1.38 2.90 129 3.64 76.3 0.29 119.0
2017-05-30 09:30 1.38 8.00 91 3.76 76.1 0.35 114.0
2017-05-30 09:00 1.41 8.00 95 3.67 76.1 0.19 128.0
2017-05-30 08:30 1.41 8.70 93 3.65 75.9 0.16 95.0
2017-05-30 08:00 1.38 8.33 88 3.58 75.9 0.37 89.0
2017-05-30 07:30 1.41 8.33 93 3.54 75.7 0.25 108.0
2017-05-30 07:00 1.41 8.70 89 3.45 75.7 0.27 104.0
2017-05-30 06:30 1.35 8.00 86 3.60 75.9 0.27 93.0
2017-05-30 06:00 1.38 7.69 86 3.65 76.1 0.39 104.0
2017-05-30 05:30 1.35 8.70 90 3.66 76.1 0.43 80.0
2017-05-30 05:00 1.31 8.00 82 3.50 76.6 0.52 82.0
2017-05-30 04:30 1.35 7.41 78 3.80 77.0 0.45 80.0
2017-05-30 04:00 1.28 7.69 74 4.15 77.2 0.41 72.0
2017-05-30 03:30 1.25 7.69 72 4.19 77.2 0.49 65.0
2017-05-30 03:00 1.25 8.33 75 4.24 77.0 0.45 55.0
2017-05-30 02:30 1.18 9.52 86 4.00 76.8 0.33 51.0
2017-05-30 02:00 1.21 8.70 85 4.25 77.0 0.31 60.0
2017-05-30 01:30 1.18 8.70 76 3.96 77.2 0.39 39.0
2017-05-30 01:00 1.18 7.14 74 4.43 77.2 0.23 34.0
2017-05-30 00:30 1.15 7.69 74 4.90 77.4 0.21 39.0
2017-05-30 00:00 1.08 7.41 78 5.24 77.7 0.16 28.0
2017-05-29 23:30 1.18 8.33 79 5.77 77.9 0.14 41.0
2017-05-29 23:00 1.15 8.00 83 5.59 78.3 0.19 11.0
2017-05-29 22:30 1.12 7.69 75 5.63 78.3 0.16 350.0
2017-05-29 22:00 1.15 8.33 77 5.74 78.4 0.14 327.0
2017-05-29 21:30 1.12 8.33 84 5.66 78.8 0.12 341.0
2017-05-29 21:00 1.12 8.70 88 5.77 79.0 0.10 31.0
2017-05-29 20:30 1.15 7.69 83 6.12 79.0 0.06 337.0
2017-05-29 20:00 1.02 8.00 80 5.91 80.4 0.12 282.0
2017-05-29 19:30 1.15 8.00 79 6.27 79.5 0.16 271.0
2017-05-29 19:00 1.05 7.69 82 5.58 80.6 0.16 280.0
2017-05-29 18:30 1.12 7.69 84 5.79 79.5 0.06 263.0
2017-05-29 18:00 1.08 7.41 77 5.28 78.6 0.17 258.0
2017-05-29 17:30 1.21 8.33 79 5.20 78.4 0.23 236.0
2017-05-29 17:00 1.18 8.00 82 5.15 77.9 0.21 243.0
2017-05-29 16:30 1.08 8.00 87 4.75 77.2 0.31 253.0
2017-05-29 16:00 1.18 9.09 85 4.56 77.4 0.16 245.0
2017-05-29 15:30 1.15 8.33 83 4.26 77.2 0.27 220.0
2017-05-29 15:00 1.21 7.69 69 4.32 76.8 0.23 208.0
2017-05-29 14:30 1.25 8.70 85 3.66 76.3 0.17 138.0
2017-05-29 14:00 1.41 8.00 82 3.57 76.1 0.16 149.0
2017-05-29 13:30 1.35 9.09 80 3.28 75.7 0.19 153.0
2017-05-29 13:00 1.48 8.00 82 3.27 75.9 0.19 143.0
2017-05-29 12:30 1.57 8.70 86 3.30 75.6 0.17 172.0
2017-05-29 12:00 1.64 8.33 86 3.15 75.6 0.19 151.0
2017-05-29 11:30 1.67 6.67 90 3.16 75.6 0.21 157.0
2017-05-29 11:00 1.80 8.33 92 3.02 75.7 0.25 151.0
2017-05-29 10:30 1.90 2.67 304 3.09 76.1 0.25 146.0
2017-05-29 10:00 1.97 8.70 90 3.01 76.3 0.39 138.0
2017-05-29 09:30 1.90 8.33 95 3.00 76.3 0.27 130.0
2017-05-29 09:00 1.80 8.33 86 3.31 76.3 0.25 117.0
2017-05-29 08:30 1.90 8.00 86 3.49 76.6 0.19 101.0
2017-05-29 08:00 1.84 2.99 174 3.63 76.8 0.21 92.0
2017-05-29 07:30 1.80 6.90 80 3.65 77.0 0.21 91.0
2017-05-29 07:00 1.80 8.33 83 3.65 77.2 0.33 77.0
2017-05-29 06:30 1.71 6.67 76 3.61 77.2 0.31 64.0
2017-05-29 06:00 1.77 8.00 80 3.55 77.2 0.23 42.0
2017-05-29 05:30 1.84 8.33 76 3.44 77.2 0.25 47.0
2017-05-29 05:00 1.77 6.67 69 3.70 77.2 0.25 13.0
2017-05-29 04:30 1.67 8.70 75 3.94 77.0 0.14 352.0
2017-05-29 04:00 1.54 7.41 72 4.01 77.5 0.10 322.0
2017-05-29 03:30 1.48 6.90 71 4.17 77.7 0.16 343.0
2017-05-29 03:00 1.48 8.70 84 4.47 77.5 0.23 48.0
2017-05-29 02:30 1.44 8.70 80 4.89 77.4 0.17 53.0
2017-05-29 02:00 1.48 7.41 72 5.40 77.4 0.16 40.0
2017-05-29 01:30 1.38 8.70 77 5.47 77.5 0.12 45.0
2017-05-29 01:00 1.41 6.90 75 5.61 77.5 0.25 14.0
2017-05-29 00:30 1.41 8.00 79 5.88 77.5 0.23 356.0
2017-05-29 00:00 1.48 8.33 81 5.97 78.3 0.17 345.0
2017-05-28 23:30 1.41 8.33 78 5.78 78.4 0.19 324.0
2017-05-28 23:00 1.44 7.41 68 5.83 78.3 0.25 310.0
2017-05-28 22:30 1.44 8.33 80 5.78 78.1 0.19 303.0
2017-05-28 22:00 1.48 7.69 78 5.70 78.3 0.14 308.0
2017-05-28 21:30 1.51 7.69 85 5.56 78.4 0.14 293.0
2017-05-28 21:00 1.48 8.33 87 5.18 78.6 0.23 292.0
2017-05-28 20:30 1.41 8.70 92 5.19 78.6 0.25 271.0
2017-05-28 20:00 1.51 9.09 83 5.38 78.4 0.10 254.0
2017-05-28 19:30 1.57 8.70 82 5.47 78.3 0.12 296.0
2017-05-28 19:00 1.44 8.70 79 5.06 78.3 0.08 270.0
2017-05-28 18:30 1.51 8.00 79 5.00 78.1 0.06 264.0
2017-05-28 18:00 1.61 8.70 79 4.99 77.9 0.10 241.0
2017-05-28 17:30 1.67 8.70 84 5.00 77.2 0.19 215.0
2017-05-28 17:00 1.67 8.70 86 4.66 77.2 0.17 206.0
2017-05-28 16:30 1.80 8.00 82 4.26 76.8 0.19 184.0
2017-05-28 16:00 1.97 8.70 84 3.98 76.5 0.37 175.0
2017-05-28 15:30 2.07 7.14 94 3.60 76.5 0.27 175.0
2017-05-28 15:00 2.23 8.70 92 3.53 76.3 0.37 136.0
2017-05-28 14:30 2.40 3.39 317 3.28 76.3 0.23 139.0
2017-05-28 14:00 2.30 3.23 318 3.27 76.5 0.21 161.0
2017-05-28 13:30 2.17 8.33 79 3.30 76.5 0.12 150.0
2017-05-28 13:00 2.26 3.23 316 3.40 76.6 0.14 138.0
2017-05-28 12:30 2.23 7.41 90 3.38 76.6 0.19 125.0
2017-05-28 12:00 2.20 7.41 83 3.44 76.6 0.12 107.0
2017-05-28 11:30 2.07 6.90 91 3.55 76.6 0.14 152.0
2017-05-28 11:00 2.07 8.33 92 3.55 76.8 0.06 142.0
2017-05-28 10:30 2.07 8.33 89 3.69 76.8 0.21 94.0
2017-05-28 10:00 1.94 9.09 81 3.64 77.2 0.16 108.0
2017-05-28 09:30 1.94 8.70 86 4.16 77.2 0.17 94.0
2017-05-28 09:00 1.80 7.14 89 4.78 77.2 0.19 59.0
2017-05-28 08:30 1.84 8.33 85 4.97 77.2 0.14 64.0
2017-05-28 08:00 1.90 8.70 87 5.03 77.2 0.19 48.0
2017-05-28 07:30 2.00 7.14 82 4.90 77.0 0.19 32.0
2017-05-28 07:00 2.03 8.70 86 5.00 77.0 0.27 51.0
2017-05-28 06:30 1.87 8.70 87 4.71 77.0 0.25 36.0
2017-05-28 06:00 1.87 8.33 88 4.90 77.0 0.17 24.0
2017-05-28 05:30 1.97 8.70 85 5.05 76.8 0.25 4.0
2017-05-28 05:00 1.90 6.45 80 5.02 76.8 0.33 353.0
2017-05-28 04:30 1.87 6.90 75 5.11 76.8 0.19 354.0
2017-05-28 04:00 1.90 7.69 84 5.55 76.8 0.29 355.0
2017-05-28 03:30 1.84 7.14 78 6.15 77.0 0.41 333.0
2017-05-28 03:00 1.77 7.41 77 6.80 77.0 0.33 296.0
2017-05-28 02:30 1.67 8.70 85 6.80 77.2 0.21 304.0
2017-05-28 02:00 1.87 7.41 83 6.72 77.7 0.23 282.0
2017-05-28 01:30 1.94 8.00 85 6.75 77.9 0.16 21.0
2017-05-28 01:00 2.00 8.00 85 6.61 77.9 0.12 354.0
2017-05-28 00:30 1.90 7.41 83 6.35 78.3 0.10 4.0
2017-05-28 00:00 1.94 7.14 74 6.44 78.4 0.16 334.0
2017-05-27 23:30 1.97 7.14 79 6.48 78.6 0.16 318.0
2017-05-27 23:00 1.71 7.69 84 6.14 79.0 0.14 339.0
2017-05-27 22:30 1.94 8.00 78 6.04 79.3 0.23 318.0
2017-05-27 22:00 1.80 8.00 77 6.05 79.0 0.31 302.0
2017-05-27 21:30 1.94 6.90 84 6.17 78.8 0.16 297.0
2017-05-27 21:00 1.94 7.41 85 6.19 78.8 0.08 329.0
2017-05-27 20:30 2.03 7.69 86 6.50 78.8 0.10 320.0
2017-05-27 20:00 2.00 6.90 81 6.39 78.8 0.08 297.0
2017-05-27 19:30 2.07 6.90 77 6.40 79.2 0.06 346.0
2017-05-27 19:00 2.03 7.41 83 6.29 79.2 0.08 239.0
2017-05-27 18:30 2.03 8.00 80 6.44 78.8 0.10 260.0
2017-05-27 18:00 1.94 7.69 77 6.13 79.7 0.02 16.0
2017-05-27 17:30 1.94 7.41 88 5.83 77.5 0.08 254.0
2017-05-27 17:00 1.87 7.69 78 5.69 78.1 0.10 265.0
2017-05-27 16:30 1.94 8.33 92 5.61 77.2 0.06 154.0
2017-05-27 16:00 1.94 7.41 84 5.75 77.2 0.10 236.0
2017-05-27 15:30 2.00 8.00 83 5.68 77.0 0.02 268.0
2017-05-27 15:00 1.84 8.70 90 5.25 76.8 0.04 170.0
2017-05-27 14:30 1.80 8.00 84 5.38 76.5 0.02 296.0
2017-05-27 14:00 1.80 8.33 87 6.13 76.5 0.04 131.0
2017-05-27 13:30 1.77 8.00 77 6.02 76.8 0.35 270.0
2017-05-27 13:00 1.80 8.33 86 6.01 76.5 0.02 323.0
2017-05-27 12:30 1.84 8.33 75 6.00 76.3 0.08 347.0
2017-05-27 12:00 1.87 8.00 85 6.14 76.1 0.08 338.0
2017-05-27 11:30 1.80 8.33 86 5.83 76.1 0.10 292.0
2017-05-27 11:00 1.90 7.14 80 5.83 76.1 0.10 285.0
2017-05-27 10:30 2.17 7.14 79 6.03 76.3 0.10 269.0
2017-05-27 10:00 2.03 7.41 77 5.79 76.3 0.10 304.0
2017-05-27 09:30 2.03 7.41 81 5.70 76.5 0.12 283.0
2017-05-27 09:00 2.00 7.41 85 5.65 76.5 0.16 264.0
2017-05-27 08:30 2.13 6.67 82 5.67 76.5 0.12 253.0
2017-05-27 08:00 2.10 8.00 85 5.74 76.5 0.10 225.0
2017-05-27 07:30 2.17 7.69 86 5.66 76.6 0.14 221.0
2017-05-27 07:00 2.20 7.69 87 5.82 76.6 0.16 191.0
2017-05-27 06:30 2.13 8.00 89 5.93 76.6 0.17 160.0
2017-05-27 06:00 2.00 8.00 91 5.92 76.6 0.12 144.0
2017-05-27 05:30 2.23 7.41 85 5.99 76.6 0.12 102.0
2017-05-27 05:00 2.17 7.41 84 6.08 76.8 0.16 123.0
2017-05-27 04:30 1.97 7.14 83 6.00 76.6 0.10 170.0
2017-05-27 04:00 2.23 7.69 82 6.19 76.6 0.10 174.0
2017-05-27 03:30 2.23 7.14 83 6.17 76.6 0.08 162.0
2017-05-27 03:00 2.00 7.69 84 6.00 76.8 0.04 349.0
2017-05-27 02:30 2.10 7.41 82 6.22 76.8 0.02 155.0
2017-05-27 02:00 2.13 7.41 83 6.13 77.0 0.02 158.0
2017-05-27 01:30 2.03 8.33 86 6.08 77.0 0.04 307.0
2017-05-27 01:00 1.97 6.90 80 5.92 77.2 0.06 300.0
2017-05-27 00:30 2.07 7.69 82 6.13 77.4 0.12 258.0
2017-05-27 00:00 2.00 6.67 66 5.98 77.5 0.14 307.0
2017-05-26 23:30 2.00 7.41 75 6.05 77.7 0.17 248.0
2017-05-26 23:00 2.23 7.41 74 6.14 77.9 0.19 246.0
2017-05-26 22:30 2.00 6.90 75 5.74 78.1 0.17 248.0
2017-05-26 22:00 2.13 7.14 75 5.90 78.3 0.33 244.0
2017-05-26 21:30 2.23 8.00 79 5.90 78.3 0.39 243.0
2017-05-26 21:00 2.40 7.41 78 5.83 78.3 0.29 241.0
2017-05-26 20:30 2.10 8.33 90 5.39 78.4 0.31 236.0
2017-05-26 20:00 2.20 8.00 94 5.47 78.4 0.19 232.0
2017-05-26 19:30 2.20 7.14 83 5.12 78.4 0.33 238.0
2017-05-26 19:00 2.07 7.14 89 4.84 78.1 0.25 216.0
2017-05-26 18:30 2.33 6.90 88 5.15 78.1 0.17 178.0
2017-05-26 18:00 2.30 7.41 93 4.77 77.9 0.10 162.0
2017-05-26 17:30 2.30 7.69 90 4.84 77.5 0.16 147.0
2017-05-26 17:00 2.23 7.41 91 4.65 77.4 0.27 167.0
2017-05-26 16:30 2.40 8.00 99 4.84 77.2 0.06 121.0
2017-05-26 16:00 2.40 7.69 83 4.70 77.2 0.08 139.0
2017-05-26 15:30 2.36 8.70 95 4.50 77.0 0.08 232.0
2017-05-26 15:00 2.30 7.14 83 4.33 77.0 0.08 268.0
2017-05-26 14:30 2.36 7.69 81 4.24 77.0 0.14 232.0
2017-05-26 14:00 2.43 8.00 85 4.12 76.8 0.16 229.0
2017-05-26 13:30 2.46 7.69 85 4.08 76.8 0.16 242.0
2017-05-26 13:00 2.72 4.26 331 3.98 76.8 0.17 236.0
2017-05-26 12:30 3.02 4.35 330 3.96 76.8 0.17 222.0
2017-05-26 12:00 3.12 4.55 335 4.01 77.0 0.17 222.0
2017-05-26 11:30 3.18 4.26 322 3.97 77.0 0.17 239.0
2017-05-26 11:00 3.22 4.44 333 3.93 77.0 0.29 257.0
2017-05-26 10:30 3.28 4.26 326 3.98 77.0 0.23 255.0
2017-05-26 10:00 3.22 4.44 329 3.96 77.0 0.25 237.0
2017-05-26 09:30 3.15 4.26 326 3.86 77.0 0.19 249.0
2017-05-26 09:00 3.35 4.26 324 3.87 77.0 0.19 183.0
2017-05-26 08:30 3.22 4.08 319 3.72 77.2 0.12 173.0
2017-05-26 08:00 3.28 4.00 320 3.74 77.2 0.06 145.0
2017-05-26 07:30 2.95 4.08 332 3.64 77.2 0.06 148.0
2017-05-26 07:00 2.76 3.85 334 3.56 77.2 0.14 83.0
2017-05-26 06:30 2.72 2.99 309 3.50 77.2 0.25 55.0
2017-05-26 06:00 2.49 3.13 297 3.55 77.2 0.17 82.0
2017-05-26 05:30 2.36 7.41 85 3.55 77.2 0.17 47.0
2017-05-26 05:00 2.40 7.41 82 3.54 77.4 0.25 50.0
2017-05-26 04:30 2.43 8.33 75 3.54 77.4 0.37 55.0
2017-05-26 04:00 2.36 7.41 79 3.72 77.4 0.21 33.0
2017-05-26 03:30 2.33 7.69 78 3.61 77.4 0.31 45.0
2017-05-26 03:00 2.36 8.33 80 3.64 77.5 0.23 6.0
2017-05-26 02:30 2.53 3.28 184 3.61 77.4 0.29 27.0
2017-05-26 02:00 2.59 7.14 66 3.61 77.5 0.33 1.0
2017-05-26 01:30 2.49 7.41 78 3.36 77.5 0.49 348.0
2017-05-26 01:00 2.69 8.00 76 3.53 77.5 0.37 357.0
2017-05-26 00:30 2.72 3.28 177 3.43 77.5 0.60 341.0
2017-05-26 00:00 2.56 7.41 87 3.37 77.5 0.51 349.0
2017-05-25 23:30 2.43 7.14 85 3.28 77.5 0.37 338.0
2017-05-25 23:00 2.30 6.67 84 3.20 77.5 0.43 332.0
2017-05-25 22:30 2.20 6.90 76 3.33 77.5 0.41 321.0
2017-05-25 22:00 1.97 7.14 93 3.42 77.7 0.49 335.0
2017-05-25 21:30 1.80 8.00 86 3.82 77.7 0.29 332.0
2017-05-25 21:00 1.97 6.90 87 3.86 77.5 0.27 329.0
2017-05-25 20:30 1.87 7.14 85 3.87 77.5 0.19 342.0
2017-05-25 20:00 2.00 6.90 93 3.75 77.4 0.21 10.0
2017-05-25 19:30 2.03 8.00 86 3.71 77.4 0.12 343.0
2017-05-25 19:00 2.20 3.28 234 3.57 77.4 0.35 10.0
2017-05-25 18:30 2.36 3.28 224 3.38 77.2 0.37 29.0
2017-05-25 18:00 2.36 3.33 231 3.28 77.2 0.43 6.0
2017-05-25 17:30 2.26 3.28 229 3.27 77.2 0.31 8.0
2017-05-25 17:00 2.59 3.39 204 3.33 77.2 0.33 28.0
2017-05-25 16:30 2.46 3.51 181 3.23 77.2 0.43 32.0
2017-05-25 16:00 2.30 3.39 175 3.28 77.2 0.37 38.0
2017-05-25 15:30 2.33 3.70 169 3.40 77.0 0.27 30.0
2017-05-25 15:00 2.46 3.45 176 3.46 77.2 0.35 38.0
2017-05-25 14:30 2.72 3.77 170 3.39 77.0 0.47 37.0
2017-05-25 14:00 2.85 4.17 170 3.39 77.0 0.39 17.0
2017-05-25 13:30 3.08 3.92 182 3.35 77.0 0.62 23.0
2017-05-25 13:00 3.31 4.26 178 3.44 77.0 0.52 11.0
2017-05-25 12:30 3.74 4.35 179 3.56 77.0 0.74 6.0
2017-05-25 12:00 4.00 4.44 180 3.69 77.0 0.64 4.0
2017-05-25 11:30 3.90 4.44 192 3.60 77.0 0.68 25.0
2017-05-25 11:00 4.00 4.55 190 3.66 77.0 0.74 25.0
2017-05-25 10:30 4.04 4.65 186 3.65 77.0 0.78 16.0
2017-05-25 10:00 4.20 4.55 186 3.69 77.0 0.84 18.0
2017-05-25 09:30 4.40 4.55 174 3.75 77.0 0.68 19.0
2017-05-25 09:00 4.43 4.55 178 3.76 77.0 0.82 10.0
2017-05-25 08:30 4.49 4.55 170 3.77 77.0 0.66 29.0
2017-05-25 08:00 4.40 4.88 163 3.81 77.0 0.68 10.0
2017-05-25 07:30 4.56 4.88 160 3.88 77.0 0.66 16.0
2017-05-25 07:00 4.69 4.76 172 3.88 77.2 0.78 20.0
2017-05-25 06:30 5.09 4.88 162 3.95 77.0 0.72 39.0
2017-05-25 06:00 4.99 4.35 173 3.94 77.2 0.87 37.0
2017-05-25 05:30 4.99 5.13 147 4.04 77.2 0.89 42.0
2017-05-25 05:00 5.64 4.55 192 4.19 77.2 0.91 35.0
2017-05-25 04:30 5.45 4.44 191 4.17 77.2 0.86 43.0
2017-05-25 04:00 5.22 5.13 159 4.11 77.2 0.97 45.0
2017-05-25 03:30 5.61 4.76 181 4.24 77.4 0.89 50.0
2017-05-25 03:00 5.61 5.88 139 4.27 77.4 0.91 53.0
2017-05-25 02:30 5.68 5.26 146 4.25 77.4 0.89 47.0
2017-05-25 02:00 5.81 5.88 134 4.29 77.4 0.86 55.0
2017-05-25 01:30 5.54 4.65 184 4.26 77.4 0.91 44.0
2017-05-25 01:00 5.58 5.00 158 4.23 77.5 0.91 49.0
2017-05-25 00:30 5.15 5.26 162 4.12 77.5 0.78 21.0
2017-05-25 00:00 5.31 5.26 157 4.37 77.5 0.51 27.0
2017-05-24 23:30 5.35 5.71 142 4.41 77.5 0.66 28.0
2017-05-24 23:00 5.35 5.41 148 4.37 77.5 0.60 34.0
2017-05-24 22:30 5.18 4.76 152 4.04 77.5 0.82 35.0
2017-05-24 22:00 5.22 5.26 140 4.02 77.5 0.64 21.0
2017-05-24 21:30 5.12 5.26 134 3.95 77.7 0.68 359.0
2017-05-24 21:00 4.53 4.76 138 3.98 77.7 0.51 10.0
2017-05-24 20:30 4.49 5.00 138 3.96 77.5 0.74 4.0
2017-05-24 20:00 4.69 5.00 138 4.00 77.5 0.39 3.0
2017-05-24 19:30 4.33 4.76 145 3.83 77.5 0.56 346.0
2017-05-24 19:00 4.40 4.65 139 3.90 77.5 0.54 348.0
2017-05-24 18:30 4.33 4.35 157 3.87 77.5 0.35 360.0
2017-05-24 18:00 4.07 4.44 153 3.88 77.5 0.39 357.0
2017-05-24 17:30 4.10 4.55 159 3.86 77.5 0.21 19.0
2017-05-24 17:00 4.23 4.55 154 4.00 77.4 0.21 36.0
2017-05-24 16:30 4.10 4.65 156 4.05 77.4 0.23 70.0
2017-05-24 16:00 4.13 4.26 153 3.98 77.4 0.23 40.0
2017-05-24 15:30 4.00 4.55 151 3.95 77.2 0.21 69.0
2017-05-24 15:00 3.87 4.76 144 3.95 77.2 0.33 74.0
2017-05-24 14:30 4.40 4.76 148 4.09 77.2 0.23 85.0
2017-05-24 14:00 4.36 4.55 154 4.15 77.0 0.35 78.0
2017-05-24 13:30 4.66 4.88 153 4.16 77.0 0.43 72.0
2017-05-24 13:00 4.72 4.88 159 4.10 77.0
2017-05-24 12:30 4.07 4.35 155 3.91 77.0 0.25 90.0
2017-05-24 12:00 4.04 4.65 140 3.94 77.2 0.37 96.0
2017-05-24 11:30 3.71 4.26 151 3.87 77.2 0.37 96.0
2017-05-24 11:00 3.77 4.55 139 3.85 77.2 0.37 97.0
2017-05-24 10:30 3.58 4.55 150 3.77 77.2 0.39 99.0
2017-05-24 10:00 3.61 4.35 147 3.86 77.2 0.31 105.0
2017-05-24 09:30 3.90 4.76 137 3.92 77.2 0.37 94.0
2017-05-24 09:00 3.87 4.76 147 3.97 77.2 0.33 99.0
2017-05-24 08:30 3.94 5.00 138 4.01 77.4 0.39 105.0
2017-05-24 08:00 4.10 5.41 131 4.19 77.4 0.45 94.0
2017-05-24 07:30 4.30 5.13 135 4.28 77.5 0.45 100.0
2017-05-24 07:00 4.36 5.41 131 4.52 77.5 0.29 101.0
2017-05-24 06:30 4.46 5.71 130 4.59 77.5 0.39 99.0
2017-05-24 06:00 4.30 5.88 137 4.58 77.7 0.33 102.0
2017-05-24 05:30 4.27 5.41 140 4.51 77.7 0.39 104.0
2017-05-24 05:00 4.79 5.71 131 4.73 77.9 0.33 107.0
2017-05-24 04:30 4.82 5.71 140 4.66 77.9 0.43 100.0
2017-05-24 04:00 4.79 5.88 134 4.73 77.9 0.33 86.0
2017-05-24 03:30 4.89 5.71 137 4.77 77.9 0.51 87.0
2017-05-24 03:00 4.72 5.71 137 4.66 77.9 0.37 74.0
2017-05-24 02:30 4.72 5.26 135 4.52 78.1 0.35 72.0
2017-05-24 02:00 4.56 5.26 139 4.35 78.1 0.37 72.0
2017-05-24 01:30 4.40 5.13 141 4.25 78.1 0.37 77.0
2017-05-24 01:00 4.59 4.65 152 4.12 78.1 0.29 45.0
2017-05-24 00:30 4.59 4.65 141 4.07 78.1 0.33 46.0
2017-05-24 00:00 4.23 4.88 137 3.92 78.1 0.37 39.0
2017-05-23 23:30 4.27 4.35 147 4.01 78.1 0.19 34.0
2017-05-23 23:00 4.07 4.35 147 3.79 78.3 0.23 14.0
2017-05-23 22:30 3.87 4.35 156 3.79 78.3 0.19 5.0
2017-05-23 22:00 3.87 4.17 152 3.77 78.3 0.16 333.0
2017-05-23 21:30 3.61 4.17 156 3.71 78.4 0.16 294.0
2017-05-23 21:00 3.41 4.17 159 3.70 78.4 0.23 273.0
2017-05-23 20:30 3.48 4.26 162 3.76 78.4 0.21 257.0
2017-05-23 20:00 3.41 4.17 155 3.80 78.4 0.19 224.0
2017-05-23 19:30 3.38 4.44 151 3.81 78.4 0.29 230.0
2017-05-23 19:00 3.35 4.26 160 3.89 78.4 0.25 226.0
2017-05-23 18:30 3.54 4.44 162 3.90 78.4 0.25 201.0
2017-05-23 18:00 3.38 4.55 159 3.92 78.3 0.31 183.0
2017-05-23 17:30 3.25 4.26 161 3.91 78.3 0.17 178.0
2017-05-23 17:00 3.35 4.26 168 3.96 78.3 0.27 180.0
2017-05-23 16:30 3.31 4.44 163 3.89 78.3 0.29 175.0
2017-05-23 16:00 3.38 4.55 165 4.05 78.1 0.23 185.0
2017-05-23 15:30 3.41 4.55 160 4.11 78.1 0.33 166.0
2017-05-23 15:00 3.41 4.65 159 4.10 78.1 0.27 168.0
2017-05-23 14:30 3.41 4.88 145 4.08 78.1 0.33 135.0
2017-05-23 14:00 3.54 4.88 150 4.01 78.1 0.37 141.0
2017-05-23 13:30 3.64 4.76 156 4.06 77.9 0.25 141.0
2017-05-23 13:00 3.41 4.76 154 3.98 77.9 0.37 135.0
2017-05-23 12:30 3.54 4.76 155 4.02 77.9 0.23 152.0
2017-05-23 12:00 3.71 4.88 157 4.07 77.9 0.25 137.0
2017-05-23 11:30 3.64 5.00 154 3.99 77.9 0.21 125.0
2017-05-23 11:00 3.84 4.76 158 4.00 77.9 0.14 107.0
2017-05-23 10:30 3.97 4.88 166 3.99 77.9 0.02 103.0
2017-05-23 10:00 4.17 4.65 177 4.05 77.9 0.10 78.0
2017-05-23 09:30 4.04 4.55 174 4.05 77.9 0.08 97.0
2017-05-23 09:00 4.17 4.88 176 4.12 77.9 0.06 118.0
2017-05-23 08:30 4.13 4.65 180 4.12 77.9 0.06 25.0
2017-05-23 08:00 4.10 4.55 172 4.04 77.9 0.10 49.0
2017-05-23 07:30 4.07 5.00 177 3.96 77.9 0.14 89.0
2017-05-23 07:00 3.84 5.00 183 3.98 78.1 0.04 89.0
2017-05-23 06:30 3.87 5.00 186 4.01 78.1 0.14 61.0
2017-05-23 06:00 3.87 4.65 172 3.98 78.1 0.10 53.0
2017-05-23 05:30 3.90 5.00 189 3.96 78.3 0.12 56.0
2017-05-23 05:00 3.81 4.88 187 3.95 78.3 0.17 36.0
2017-05-23 04:30 3.67 4.26 167 3.82 78.3 0.23 353.0
2017-05-23 04:00 3.41 4.26 168 3.74 78.4 0.16 12.0
2017-05-23 03:30 3.35 4.55 183 3.81 78.4 0.21 354.0
2017-05-23 03:00 3.25 4.08 163 3.79 78.4 0.19 4.0
2017-05-23 02:30 3.18 4.08 172 3.71 78.4 0.23 7.0
2017-05-23 02:00 3.15 3.85 163 3.54 78.4 0.21 14.0
2017-05-23 01:30 2.89 3.92 162 3.60 78.4 0.23 2.0
2017-05-23 01:00 2.95 3.39 160 3.49 78.4 0.29 352.0
2017-05-23 00:30 2.72 3.39 154 3.43 78.6 0.27 354.0
2017-05-23 00:00 2.76 3.13 149 3.37 78.6 0.21 348.0
2017-05-22 23:30 2.82 3.17 146 3.40 78.6 0.37 350.0
2017-05-22 23:00 2.66 2.90 149 3.34 78.8 0.29 336.0
2017-05-22 22:30 2.66 8.70 79 3.32 79.0 0.47 335.0
2017-05-22 22:00 2.40 8.33 83 3.24 79.0 0.35 346.0
2017-05-22 21:30 2.30 7.41 79 3.41 79.0 0.35 331.0
2017-05-22 21:00 2.26 8.33 84 3.69 79.2 0.33 325.0
2017-05-22 20:30 2.03 8.33 81 3.65 79.3 0.35 331.0
2017-05-22 20:00 1.90 8.33 81 3.97 79.5 0.21 304.0
2017-05-22 19:30 1.97 8.33 85 4.23 79.5 0.23 308.0
2017-05-22 19:00 2.07 8.33 79 4.46 79.7 0.21 292.0
2017-05-22 18:30 1.90 8.33 87 4.35 79.5 0.14 247.0
2017-05-22 18:00 1.84 7.41 89 4.43 79.3 0.12 216.0
2017-05-22 17:30 1.87 8.00 85 4.39 79.3 0.12 197.0
2017-05-22 17:00 1.97 7.69 86 4.40 79.2 0.10 146.0
2017-05-22 16:30 1.97 7.14 85 4.46 79.0 0.08 155.0
2017-05-22 16:00 1.90 6.06 97 4.42 78.6 0.16 157.0
2017-05-22 15:30 2.00 8.33 90 4.50 78.4 0.12 172.0
2017-05-22 15:00 2.03 6.06 92 4.31 78.4 0.16 141.0
2017-05-22 14:30 2.07 8.00 93 4.43 78.4 0.12 154.0
2017-05-22 14:00 2.13 8.70 88 4.38 78.4 0.08 182.0
2017-05-22 13:30 2.00 8.33 88 4.37 78.4 0.14 156.0
2017-05-22 13:00 2.07 8.70 91 4.39 78.4 0.17 119.0
2017-05-22 12:30 2.17 8.70 90 4.33 78.3 0.08 112.0
2017-05-22 12:00 2.23 6.45 91 4.24 78.3 0.08 73.0
2017-05-22 11:30 2.33 6.90 83 4.15 78.3 0.12 90.0
2017-05-22 11:00 2.40 6.45 87 4.02 78.3 0.14 94.0
2017-05-22 10:30 2.33 6.45 78 3.95 78.3 0.17 84.0
2017-05-22 10:00 2.46 6.45 83 4.19 78.3 0.14 38.0
2017-05-22 09:30 2.49 6.67 88 4.26 78.3 0.10 40.0
2017-05-22 09:00 2.56 8.33 86 4.31 78.3 0.16 44.0
2017-05-22 08:30 2.53 8.33 86 4.03 78.3 0.14 18.0
2017-05-22 08:00 2.46 6.06 89 3.92 78.3 0.19 27.0
2017-05-22 07:30 2.56 8.70 89 3.94 78.3 0.17 15.0
2017-05-22 07:00 2.62 6.67 86 3.92 78.3 0.21 24.0
2017-05-22 06:30 2.56 6.67 85 3.80 78.3 0.19 13.0
2017-05-22 06:00 2.72 5.88 87 3.75 78.4 0.25 11.0
2017-05-22 05:30 2.56 6.45 84 3.76 78.4 0.31 1.0
2017-05-22 05:00 2.72 8.33 85 3.94 78.4 0.25 8.0
2017-05-22 04:30 2.66 6.90 90 3.79 78.4 0.25 2.0
2017-05-22 04:00 2.69 6.67 86 3.85 78.4 0.27 351.0
2017-05-22 03:30 2.72 6.90 85 3.86 78.4 0.21 10.0
2017-05-22 03:00 2.72 6.25 86 3.75 78.6 0.27 18.0
2017-05-22 02:30 2.85 6.90 84 3.89 78.8 0.23 359.0
2017-05-22 02:00 2.89 6.45 82 3.95 79.0 0.27 10.0
2017-05-22 01:30 2.72 6.45 77 3.84 79.0 0.27 349.0
2017-05-22 01:00 2.69 7.14 82 3.70 79.2 0.29 355.0
2017-05-22 00:30 2.95 6.25 87 3.98 79.3 0.29 7.0
2017-05-22 00:00 2.85 6.45 86 3.79 79.7 0.33 339.0
2017-05-21 23:30 2.76 6.45 90 3.86 79.7 0.33 350.0
2017-05-21 23:00 2.79 7.14 88 3.93 79.9 0.37 344.0
2017-05-21 22:30 2.82 5.88 91 3.99 80.1 0.35 345.0
2017-05-21 22:00 2.92 6.67 88 4.00 79.9 0.37 321.0
2017-05-21 21:30 2.95 6.25 94 3.87 79.9 0.31 327.0
2017-05-21 21:00 2.92 7.14 94 3.88 79.7 0.25 327.0
2017-05-21 20:30 2.82 6.06 94 3.98 79.7 0.19 321.0
2017-05-21 20:00 2.62 6.06 86 4.11 80.1 0.16 333.0
2017-05-21 19:30 2.43 6.67 94 4.81 81.9 0.12 306.0
2017-05-21 19:00 2.36 6.67 88 5.15 82.6 0.04 286.0
2017-05-21 18:30 2.26 6.67 94 5.07 82.4 0.17 260.0
2017-05-21 18:00 2.17 6.67 90 4.97 82.6 0.06 260.0
2017-05-21 17:30 2.20 6.45 96 5.13 83.1 0.17 263.0
2017-05-21 17:00 2.30 6.45 92 4.96 82.6 0.12 238.0
2017-05-21 16:30 2.33 6.90 94 4.79 82.2 0.16 210.0
2017-05-21 16:00 2.23 6.90 94 4.84 81.7 0.12 178.0
2017-05-21 15:30 2.17 6.25 96 4.74 81.0 0.17 168.0
2017-05-21 15:00 2.17 6.90 96 4.84 80.2 0.12 189.0
2017-05-21 14:30 2.17 6.45 100 4.97 79.9 0.17 124.0
2017-05-21 14:00 2.03 6.67 97 4.85 79.2 0.14 172.0
2017-05-21 13:30 2.13 7.41 101 4.94 78.6 0.10 107.0
2017-05-21 13:00 2.20 6.90 96 4.85 78.4 0.16 164.0
2017-05-21 12:30 2.20 6.67 97 4.88 78.4 0.12 124.0
2017-05-21 12:00 2.20 6.06 95 4.78 78.4 0.17 121.0
2017-05-21 11:30 2.30 6.67 94 4.80 78.4 0.14 115.0
2017-05-21 11:00 2.26 6.45 92 4.72 78.4 0.16 109.0
2017-05-21 10:30 2.40 6.67 88 4.77 78.4 0.14 96.0
2017-05-21 10:00 2.40 6.45 96 4.64 78.4 0.06 82.0
2017-05-21 09:30 2.40 6.67 93 4.58 78.4 0.12 83.0
2017-05-21 09:00 2.49 7.41 94 4.61 78.4 0.08 104.0
2017-05-21 08:30 2.40 6.45 94 4.39 78.4 0.08 335.0
2017-05-21 08:00 2.53 6.67 93 4.60 78.4 0.14 32.0
2017-05-21 07:30 2.46 6.67 98 4.24 78.4 0.10 21.0
2017-05-21 07:00 2.59 7.14 92 4.11 78.4 0.19 9.0
2017-05-21 06:30 2.56 6.45 94 4.18 78.4 0.12 350.0
2017-05-21 06:00 2.59 6.90 87 4.08 78.6 0.14 323.0
2017-05-21 05:30 2.56 6.45 92 3.91 78.6 0.17 340.0
2017-05-21 05:00 2.66 6.25 95 4.16 78.6 0.19 351.0
2017-05-21 04:30 2.69 6.67 93 3.99 78.6 0.29 339.0
2017-05-21 04:00 2.49 6.67 87 3.78 78.6 0.21 309.0
2017-05-21 03:30 2.56 6.90 96 4.02 78.8 0.08 319.0
2017-05-21 03:00 2.62 6.45 92 4.01 78.8 0.10 11.0
2017-05-21 02:30 2.59 6.45 92 3.94 79.0 0.12 359.0
2017-05-21 02:00 2.66 7.14 91 4.01 79.0 0.10 276.0
2017-05-21 01:30 2.69 6.67 92 4.13 79.0 0.08 186.0
2017-05-21 01:00 2.59 6.45 93 4.17 79.2 0.12 14.0
2017-05-21 00:30 2.62 5.88 85 4.17 79.2 0.06 18.0
2017-05-21 00:00 2.72 6.90 93 4.32 79.0 0.14 61.0
2017-05-20 23:30 2.72 6.45 92 4.29 79.0 0.08 5.0
2017-05-20 23:00 2.69 6.45 97 4.38 79.0 0.06 66.0
2017-05-20 22:30 2.69 6.67 92 4.43 79.2 0.10 316.0
2017-05-20 22:00 2.72 6.90 92 4.43 79.3 0.10 315.0
2017-05-20 21:30 2.62 7.41 91 4.40 79.3 0.08 285.0
2017-05-20 21:00 2.53 6.90 95 4.24 79.5 0.04 332.0
2017-05-20 20:30 2.53 6.06 93 4.46 79.5 0.10 307.0
2017-05-20 20:00 2.40 6.45 86 4.26 79.5 0.10 309.0
2017-05-20 19:30 2.56 6.67 94 4.35 79.5 0.06 309.0
2017-05-20 19:00 2.62 6.67 87 4.37 79.3 0.04 154.0
2017-05-20 18:30 2.62 6.67 94 4.31 79.5 0.16 345.0
2017-05-20 18:00 2.66 6.06 89 4.46 79.5 0.16 295.0
2017-05-20 17:30 2.59 6.67 91 4.56 79.7 0.12 277.0
2017-05-20 17:00 2.59 7.41 88 4.47 79.3 0.12 305.0
2017-05-20 16:30 2.69 6.25 85 4.38 79.2 0.10 314.0
2017-05-20 16:00 2.62 6.25 94 4.46 79.0 0.10 266.0
2017-05-20 15:30 2.62 6.25 81 4.49 78.8 0.19 249.0
2017-05-20 15:00 2.79 6.45 88 4.47 78.6 0.08 278.0
2017-05-20 14:30 2.76 6.67 90 4.43 78.4 0.02 273.0
2017-05-20 14:00 2.89 6.25 92 4.49 78.3 0.04 130.0
2017-05-20 13:30 2.95 5.71 98 4.53 78.1 0.06 28.0
2017-05-20 13:00 3.02 5.88 97 4.45 78.1 0.12 73.0
2017-05-20 12:30 3.05 6.25 88 4.44 78.1 0.16 70.0
2017-05-20 12:00 3.08 6.06 86 4.43 78.1 0.10 90.0
2017-05-20 11:30 3.08 6.45 84 4.52 78.1 0.14 89.0
2017-05-20 11:00 3.28 6.67 82 4.50 78.1 0.21 55.0
2017-05-20 10:30 3.18 6.45 88 4.43 78.1 0.17 54.0
2017-05-20 10:00 3.22 6.45 85 4.22 78.1 0.16 11.0
2017-05-20 09:30 3.28 5.88 94 4.42 78.1 0.17 22.0
2017-05-20 09:00 3.31 6.45 82 4.41 78.1 0.23 359.0
2017-05-20 08:30 3.31 5.26 85 4.34 78.1 0.21 355.0
2017-05-20 08:00 3.58 4.65 92 4.43 78.1 0.29 357.0
2017-05-20 07:30 3.35 6.45 86 4.30 78.1 0.29 14.0
2017-05-20 07:00 3.64 6.45 81 4.32 78.1 0.39 354.0
2017-05-20 06:30 3.54 5.26 81 4.23 78.1 0.45 352.0
2017-05-20 06:00 3.74 6.45 80 4.28 78.1 0.43 349.0
2017-05-20 05:30 3.87 4.55 99 4.31 78.1 0.41 350.0
2017-05-20 05:00 3.64 6.25 94 4.11 78.1 0.43 331.0
2017-05-20 04:30 3.61 5.13 84 4.14 78.1 0.43 317.0
2017-05-20 04:00 3.64 4.88 86 4.20 78.1 0.39 332.0
2017-05-20 03:30 3.67 6.90 87 4.19 77.9 0.49 328.0
2017-05-20 03:00 3.67 4.44 93 4.09 77.7 0.37 316.0
2017-05-20 02:30 3.74 5.13 96 4.16 77.9 0.37 316.0
2017-05-20 02:00 3.71 6.67 88 4.10 77.9 0.25 330.0
2017-05-20 01:30 3.77 6.06 90 4.17 78.1 0.31 316.0
2017-05-20 01:00 3.77 6.45 85 4.15 78.1 0.19 324.0
2017-05-20 00:30 3.44 6.25 94 4.00 78.1 0.16 322.0
2017-05-20 00:00 3.58 6.45 96 4.18 78.1 0.16 2.0
2017-05-19 23:30 3.71 6.67 88 4.31 78.3 0.16 15.0
2017-05-19 23:00 3.51 6.67 82 4.21 78.3 0.19 6.0
2017-05-19 22:30 3.48 6.90 84 4.19 78.3 0.17 341.0
2017-05-19 22:00 3.51 7.14 84 4.22 78.4 0.23 348.0
2017-05-19 21:30 3.44 6.67 84 4.18 78.4 0.27 337.0
2017-05-19 21:00 3.58 6.45 85 4.32 78.4 0.25 356.0
2017-05-19 20:30 3.38 6.25 85 4.17 78.4 0.31 353.0
2017-05-19 20:00 3.51 6.67 87 4.39 78.4 0.27 346.0
2017-05-19 19:30 3.61 6.67 93 4.35 78.4 0.27 339.0
2017-05-19 19:00 3.51 6.67 92 4.19 78.4 0.23 349.0
2017-05-19 18:30 3.54 6.45 93 4.27 78.4 0.41 333.0
2017-05-19 18:00 3.77 6.45 93 4.37 78.3 0.33 349.0
2017-05-19 17:30 3.67 6.45 87 4.35 78.3 0.37 326.0
2017-05-19 17:00 3.41 6.90 91 4.29 78.1 0.35 326.0
2017-05-19 16:30 3.61 6.67 87 4.29 77.9 0.33 327.0
2017-05-19 16:00 3.81 6.45 91 4.43 77.7 0.35 333.0
2017-05-19 15:30 3.84 6.90 86 4.45 77.7 0.33 343.0
2017-05-19 15:00 3.81 6.67 84 4.42 77.5 0.33 344.0
2017-05-19 14:30 3.77 6.90 92 4.42 77.4 0.31 346.0
2017-05-19 14:00 3.74 6.90 91 4.41 77.2 0.21 359.0
2017-05-19 13:30 3.84 6.67 95 4.44 77.2 0.33 2.0
2017-05-19 13:00 3.97 6.67 90 4.51 77.0 0.39 13.0
2017-05-19 12:30 4.10 6.25 85 4.59 77.0 0.39 4.0
2017-05-19 12:00 4.10 6.45 88 4.53 77.0 0.49 8.0
2017-05-19 11:30 4.27 6.25 87 4.66 77.0 0.51 7.0
2017-05-19 11:00 4.56 6.45 85 4.79 77.0 0.45 19.0
2017-05-19 10:30 4.30 6.67 93 4.72 77.2 0.43 9.0
2017-05-19 10:00 4.49 6.45 93 4.59 77.2 0.43 26.0
2017-05-19 09:30 4.69 6.25 100 4.76 77.2 0.58 9.0
2017-05-19 09:00 4.82 6.25 86 4.75 77.2 0.56 8.0
2017-05-19 08:30 4.49 6.06 88 4.70 77.2 0.47 7.0
2017-05-19 08:00 4.69 6.90 99 4.72 77.2 0.62 352.0
2017-05-19 07:30 4.40 5.56 85 4.63 77.2 0.66 343.0
2017-05-19 07:00 4.46 6.67 93 4.66 77.2 0.66 352.0
2017-05-19 06:30 4.53 5.71 86 4.62 76.8 0.72 356.0
2017-05-19 06:00 4.49 6.25 93 4.65 76.8 0.84 340.0
2017-05-19 05:30 4.49 6.45 98 4.61 76.6 0.68 343.0
2017-05-19 05:00 4.76 6.06 91 4.61 76.5 0.66 350.0
2017-05-19 04:30 4.92 6.45 96 4.67 76.3 0.60 344.0
2017-05-19 04:00 4.82 6.25 93 4.63 76.5 0.54 336.0
2017-05-19 03:30 4.59 6.45 89 4.59 76.6 0.51 345.0
2017-05-19 03:00 4.76 6.90 93 4.57 76.6 0.52 353.0
2017-05-19 02:30 4.82 5.88 90 4.53 76.8 0.49 341.0
2017-05-19 02:00 4.92 6.67 95 4.56 76.8 0.58 334.0
2017-05-19 01:30 4.89 6.90 93 4.53 76.8 0.54 346.0
2017-05-19 01:00 4.99 6.67 90 4.61 76.8 0.37 342.0
2017-05-19 00:30 4.53 6.90 90 4.63 77.0 0.47 353.0
2017-05-19 00:00 4.72 7.14 91 4.78 77.0 0.56 353.0
2017-05-18 23:30 4.66 7.14 94 4.71 77.2 0.64 15.0
2017-05-18 23:00 4.69 6.06 95 4.78 77.2 0.47 3.0
2017-05-18 22:30 4.63 6.90 93 4.78 77.4 0.45 2.0
2017-05-18 22:00 4.59 7.14 91 4.83 77.4 0.58 358.0
2017-05-18 21:30 4.43 6.67 90 4.91 77.4 0.66 1.0
2017-05-18 21:00 4.63 7.69 88 4.92 77.5 0.56 356.0
2017-05-18 20:30 4.56 7.69 90 5.05 77.5 0.47 3.0
2017-05-18 20:00 4.56 7.41 90 5.11 77.5 0.41 342.0
2017-05-18 19:30 4.30 7.14 94 5.03 77.5 0.60 358.0
2017-05-18 19:00 4.36 7.41 100 4.97 77.5 0.45 348.0
2017-05-18 18:30 4.72 7.69 99 5.25 77.7 0.66 340.0
2017-05-18 18:00 4.59 7.14 99 4.93 77.5 0.49 335.0
2017-05-18 17:30 4.69 7.41 99 5.00 77.5 0.37 344.0
2017-05-18 17:00 4.53 7.41 99 4.76 77.5 0.47 341.0
2017-05-18 16:30 4.82 7.14 91 4.93 77.5 0.37 328.0
2017-05-18 16:00 5.02 7.41 101 5.01 77.4 0.37 332.0
2017-05-18 15:30 5.12 7.41 98 5.07 77.4 0.37 323.0
2017-05-18 15:00 5.31 6.67 102 5.05 77.4 0.35 346.0
2017-05-18 14:30 5.38 7.14 98 5.15 77.4 0.33 357.0
2017-05-18 14:00 5.41 7.69 95 5.10 77.4 0.39 9.0
2017-05-18 13:30 5.51 7.41 95 5.08 77.4 0.29 13.0
2017-05-18 13:00 6.20 7.41 93 5.36 77.4 0.29 356.0
2017-05-18 12:30 5.77 7.14 98 5.14 77.4 0.33 12.0
2017-05-18 12:00 6.27 6.90 97 5.31 77.4 0.33 11.0
2017-05-18 11:30 6.00 7.41 92 5.18 77.4 0.31 9.0
2017-05-18 11:00 6.00 6.90 101 5.16 77.4 0.37 5.0
2017-05-18 10:30 5.91 7.41 100 5.19 77.4 0.33 22.0
2017-05-18 10:00 6.27 6.90 87 5.19 77.4 0.47 28.0
2017-05-18 09:30 5.91 6.90 92 5.16 77.4 0.58 14.0
2017-05-18 09:00 6.04 7.41 94 5.11 77.4 0.52 12.0
2017-05-18 08:30 5.64 6.90 101 5.00 77.4 0.39 6.0
2017-05-18 08:00 6.33 7.41 89 5.26 77.2 0.49 8.0
2017-05-18 07:30 6.33 6.25 105 5.17 77.2 0.45 2.0
2017-05-18 07:00 6.14 7.14 91 5.15 77.0 0.54 6.0
2017-05-18 06:30 6.23 6.90 100 5.18 76.8 0.47 0.0
2017-05-18 06:00 5.77 7.14 94 5.02 76.8 0.56 341.0
2017-05-18 05:30 5.87 6.90 104 5.09 76.8 0.49 342.0
2017-05-18 05:00 6.07 6.90 101 5.21 76.6 0.62 345.0
2017-05-18 04:30 5.94 6.90 98 5.15 76.6 0.62 328.0
2017-05-18 04:00 5.68 6.90 95 4.97 76.8 0.68 321.0
2017-05-18 03:30 5.61 7.14 100 5.07 77.2 0.62 329.0
2017-05-18 03:00 5.61 6.90 91 4.91 77.4 0.72 314.0
2017-05-18 02:30 5.38 5.88 95 4.82 77.5 0.64 313.0
2017-05-18 02:00 5.12 6.90 97 4.69 77.5 0.60 313.0
2017-05-18 01:30 5.25 6.67 100 4.73 77.7 0.64 310.0
2017-05-18 01:00 5.28 6.67 96 4.73 77.7 0.56 320.0
2017-05-18 00:30 5.25 6.67 97 4.68 77.9 0.47 319.0
2017-05-18 00:00 5.05 6.90 92 4.59 78.1 0.52 326.0
2017-05-17 23:30 5.15 6.67 93 4.67 78.3 0.54 314.0
2017-05-17 23:00 5.22 6.67 91 4.64 78.3 0.37 336.0
2017-05-17 22:30 5.31 6.67 93 4.66 78.3 0.31 330.0
2017-05-17 22:00 5.09 6.25 93 4.62 78.3 0.51 332.0
2017-05-17 21:30 4.99 6.67 93 4.66 78.4 0.37 342.0
2017-05-17 21:00 4.99 6.67 85 4.64 78.4 0.33 337.0
2017-05-17 20:30 4.95 6.67 96 4.73 78.3 0.45 341.0
2017-05-17 20:00 4.86 6.67 95 4.69 78.3 0.31 332.0
2017-05-17 19:30 4.89 6.06 94 4.70 78.3 0.33 330.0
2017-05-17 19:00 4.66 6.25 96 4.56 78.3 0.47 338.0
2017-05-17 18:30 4.79 5.88 90 4.63 78.3 0.43 347.0
2017-05-17 18:00 4.13 5.26 90 4.36 78.3 0.51 340.0
2017-05-17 17:30 4.20 6.45 92 4.49 78.3 0.43 339.0
2017-05-17 17:00 4.07 6.25 95 4.50 78.3 0.51 327.0
2017-05-17 16:30 4.07 5.71 88 4.39 78.4 0.47 322.0
2017-05-17 16:00 3.77 6.06 101 4.42 78.4 0.56 330.0
2017-05-17 15:30 3.84 6.06 100 4.38 78.4 0.60 337.0
2017-05-17 15:00 3.87 6.25 100 4.38 78.4 0.49 335.0
2017-05-17 14:30 3.90 5.88 101 4.41 78.4 0.43 329.0
2017-05-17 14:00 4.00 6.06 105 4.42 78.4 0.45 319.0
2017-05-17 13:30 3.97 6.25 100 4.52 78.4 0.49 324.0
2017-05-17 13:00 4.20 6.06 100 4.63 78.4 0.58 347.0
2017-05-17 12:30 4.04 5.71 102 4.51 78.4 0.45 344.0
2017-05-17 12:00 4.23 6.06 100 4.60 78.4 0.51 335.0
2017-05-17 11:30 4.27 5.71 103 4.55 78.4 0.47 339.0
2017-05-17 11:00 4.30 5.56 102 4.50 78.4 0.58 13.0
2017-05-17 10:30 4.49 5.71 99 4.60 78.4 0.51 1.0
2017-05-17 10:00 4.53 5.71 99 4.68 78.6 0.62 1.0
2017-05-17 09:30 4.33 5.56 95 4.41 78.4 0.49 4.0
2017-05-17 09:00 4.59 5.41 103 4.59 78.4 0.52 9.0
2017-05-17 08:30 4.53 5.56 101 4.48 78.4 0.56 1.0
2017-05-17 08:00 4.66 5.56 101 4.57 78.3 0.60 351.0
2017-05-17 07:30 4.63 5.41 99 4.56 78.4 0.62 355.0
2017-05-17 07:00 4.66 5.26 102 4.43 78.4 0.56 340.0
2017-05-17 06:30 4.43 5.00 100 4.41 78.4 0.56 345.0
2017-05-17 06:00 4.30 5.13 98 4.39 78.4 0.58 350.0
2017-05-17 05:30 4.43 5.13 105 4.41 78.4 0.72 347.0
2017-05-17 05:00 4.23 5.26 89 4.27 78.6 0.84 340.0
2017-05-17 04:30 4.04 4.76 93 4.18 78.6 0.72 330.0
2017-05-17 04:00 4.07 4.88 100 4.13 78.8 0.78 328.0
2017-05-17 03:30 4.00 4.55 104 4.05 79.0 0.82 322.0
2017-05-17 03:00 3.84 4.44 108 3.95 79.2 0.82 318.0
2017-05-17 02:30 3.81 4.44 100 3.92 79.5 0.74 320.0
2017-05-17 02:00 3.74 4.55 99 4.06 79.5 0.72 327.0
2017-05-17 01:30 3.61 4.44 99 3.96 79.5 0.86 322.0
2017-05-17 01:00 3.58 4.44 92 3.92 79.3 0.87 330.0
2017-05-17 00:30 3.44 4.08 91 3.95 79.2 0.74 332.0
2017-05-17 00:00 3.48 4.08 96 3.98 79.2 0.62 342.0
2017-05-16 23:30 3.35 4.26 91 4.07 79.3 0.80 344.0
2017-05-16 23:00 3.12 15.38 53 4.07 79.3 0.52 349.0
2017-05-16 22:30 3.08 8.00 63 4.08 79.3 0.54 349.0
2017-05-16 22:00 2.95 4.17 80 4.19 79.3 0.54 352.0
2017-05-16 21:30 3.02 15.38 57 4.29 79.3 0.56 354.0
2017-05-16 21:00 2.79 9.09 67 4.32 79.3 0.51 345.0
2017-05-16 20:30 2.92 10.53 54 4.38 79.5 0.52 340.0
2017-05-16 20:00 2.99 4.00 82 4.36 79.3 0.74 337.0
2017-05-16 19:30 2.92 8.00 38 4.24 79.0 0.52 337.0
2017-05-16 19:00 2.95 8.70 69 4.37 79.0 0.70 344.0
2017-05-16 18:30 2.99 8.00 44 4.45 78.6 0.45 354.0
2017-05-16 18:00 3.02 15.38 58 4.29 78.4 0.70 345.0
2017-05-16 17:30 2.92 11.11 58 4.43 78.1 0.52 347.0
2017-05-16 17:00 2.95 8.00 45 4.39 77.9 0.49 336.0
2017-05-16 16:30 2.89 9.09 65 4.40 77.9 0.74 333.0
2017-05-16 16:00 2.76 10.00 53 4.26 77.9 0.80 333.0
2017-05-16 15:30 2.72 15.38 62 4.37 77.9 0.72 331.0
2017-05-16 15:00 2.66 8.00 34 4.40 77.9 0.66 320.0
2017-05-16 14:30 2.72 8.00 39 4.41 78.1 0.52 316.0
2017-05-16 14:00 2.69 11.11 41 4.55 78.1 0.47 325.0
2017-05-16 13:30 2.66 11.11 42 4.72 78.3 0.58 318.0
2017-05-16 13:00 2.62 8.33 36 4.58 78.1 0.33 306.0
2017-05-16 12:30 2.66 11.11 41 4.72 78.1 0.41 325.0
2017-05-16 12:00 2.62 8.70 30 4.69 78.1 0.37 329.0
2017-05-16 11:30 2.69 8.70 31 4.97 78.1 0.27 320.0
2017-05-16 11:00 2.66 9.52 26 4.93 78.1 0.27 330.0
2017-05-16 10:30 2.82 8.70 28 5.20 78.1 0.43 336.0
2017-05-16 10:00 2.72 9.09 26 5.13 78.1 0.33 329.0
2017-05-16 09:30 2.72 11.11 26 4.99 78.3 0.29 340.0
2017-05-16 09:00 2.89 8.33 20 5.25 78.3 0.56 339.0
2017-05-16 08:30 2.82 10.00 47 5.14 78.1 0.39 340.0
2017-05-16 08:00 2.99 8.70 24 5.38 77.9 0.37 331.0
2017-05-16 07:30 3.02 8.70 21 5.15 77.9 0.39 352.0
2017-05-16 07:00 3.02 10.53 47 5.09 78.1 0.52 343.0
2017-05-16 06:30 3.31 8.33 26 5.24 77.9 0.51 339.0
2017-05-16 06:00 3.08 10.53 52 4.91 77.9 0.68 336.0
2017-05-16 05:30 3.25 8.70 6 4.93 78.1 0.68 328.0
2017-05-16 05:00 3.25 11.11 39 4.91 78.1 0.91 331.0
2017-05-16 04:30 3.25 9.09 15 4.88 78.3 0.82 328.0
2017-05-16 04:00 3.31 9.52 18 5.08 78.6 0.78 322.0
2017-05-16 03:30 3.41 9.09 19 5.12 79.0 0.97 318.0
2017-05-16 03:00 3.38 9.09 28 5.16 79.3 1.19 321.0
2017-05-16 02:30 3.28 9.09 40 5.01 79.5 1.32 321.0
2017-05-16 02:00 3.41 8.70 31 5.26 79.7 1.28 324.0
2017-05-16 01:30 3.35 8.70 27 5.10 79.7 1.30 328.0
2017-05-16 01:00 3.64 8.70 18 5.21 79.7 1.32 332.0
2017-05-16 00:30 3.64 8.33 37 5.01 79.5 1.19 331.0
2017-05-16 00:00 3.81 8.70 30 5.04 79.3 0.91 329.0
2017-05-15 23:30 3.67 8.33 24 4.85 79.3 0.84 336.0
2017-05-15 23:00 3.77 5.26 22 4.78 79.7 0.80 335.0
2017-05-15 22:30 3.97 8.33 23 4.81 79.7 0.72 331.0
2017-05-15 22:00 3.61 8.70 13 4.69 79.5 0.62 319.0
2017-05-15 21:30 3.71 8.33 21 4.60 79.2 0.35 317.0
2017-05-15 21:00 3.44 9.09 16 4.66 79.3 0.35 338.0
2017-05-15 20:30 3.31 9.09 21 4.88 79.0 0.31 338.0
2017-05-15 20:00 2.99 8.33 23 5.02 79.0 0.23 4.0
2017-05-15 19:30 2.95 8.70 22 5.64 79.0 0.21 22.0
2017-05-15 19:00 2.95 8.70 31 6.10 79.0 0.16 335.0
2017-05-15 18:30 2.92 8.33 30 6.11 79.3 0.35 339.0
2017-05-15 18:00 2.92 9.09 18 6.19 79.0 0.16 358.0
2017-05-15 17:30 2.79 9.09 19 6.26 79.0 0.17 332.0
2017-05-15 17:00 2.76 9.52 22 6.40 78.8 0.14 360.0
2017-05-15 16:30 2.82 9.52 27 6.56 78.6 0.37 325.0
2017-05-15 16:00 2.82 8.33 21 6.85 78.4 0.17 349.0
2017-05-15 15:30 2.69 8.33 35 6.67 77.9 0.29 322.0
2017-05-15 15:00 2.62 8.70 29 6.62 77.9 0.14 315.0
2017-05-15 14:30 3.02 9.09 29 6.70 77.0
2017-05-15 14:00 2.82 9.09 24 6.75 77.2 0.16 347.0
2017-05-15 13:30 2.79 9.52 20 6.64 77.0 0.16 349.0
2017-05-15 13:00 2.79 8.70 16 6.77 76.6 0.19 345.0
2017-05-15 12:30 2.53 9.09 17 6.48 76.5 0.12 351.0
2017-05-15 12:00 2.66 8.70 20 6.39 76.5 0.25 337.0
2017-05-15 11:30 2.66 7.41 7 6.17 76.5 0.37 340.0
2017-05-15 11:00 2.62 8.70 12 6.14 76.5 0.19 345.0
2017-05-15 10:30 2.49 9.09 21 5.90 76.5 0.33 346.0
2017-05-15 10:00 2.56 9.52 13 5.75 76.8 0.29 8.0
2017-05-15 09:30 2.53 9.52 21 5.78 76.8 0.23 344.0
2017-05-15 09:00 2.46 9.09 20 5.66 77.0 0.21 328.0
2017-05-15 08:30 2.33 8.00 29 5.37 77.2 0.21 328.0
2017-05-15 08:00 2.26 9.09 34 4.98 77.2 0.21 352.0
2017-05-15 07:30 2.46 8.33 41 5.12 77.2 0.23 16.0
2017-05-15 07:00 2.43 8.33 57 4.95 77.2 0.19 355.0
2017-05-15 06:30 2.46 8.33 55 4.91 77.2 0.10 334.0
2017-05-15 06:00 2.40 5.26 322 4.89 77.4 0.25 325.0
2017-05-15 05:30 2.62 5.13 329 4.84 77.5 0.23 335.0
2017-05-15 05:00 2.66 4.88 321 4.84 77.7 0.21 339.0
2017-05-15 04:30 2.62 4.88 320 4.70 77.7 0.21 335.0
2017-05-15 04:00 2.72 5.13 325 4.64 78.1 0.33 333.0
2017-05-15 03:30 2.76 4.88 325 4.65 77.5 0.29 336.0
2017-05-15 03:00 2.69 5.00 325 4.69 77.4 0.23 320.0
2017-05-15 02:30 2.26 8.70 65 4.87 77.4 0.25 334.0
2017-05-15 02:00 1.87 8.00 63 4.95 77.2 0.19 319.0
2017-05-15 01:30 1.84 9.09 58 4.94 77.0 0.23 326.0
2017-05-15 01:00 1.64 9.09 60 5.11 76.6 0.27 330.0
2017-05-15 00:30 1.57 8.33 76 5.12 76.5 0.31 322.0
2017-05-15 00:00 1.61 8.33 66 4.96 76.3 0.17 5.0
2017-05-14 23:30 1.64 8.33 66 4.83 76.1 0.12 11.0
2017-05-14 23:00 1.74 10.00 60 4.89 76.1 0.29 11.0
2017-05-14 22:30 1.67 9.52 63 4.76 76.5 0.25 0.0
2017-05-14 22:00 1.71 8.33 65 5.19 76.8 0.33 353.0
2017-05-14 21:30 1.51 8.33 75 5.25 76.8 0.37 1.0
2017-05-14 21:00 1.54 8.33 76 5.47 77.2 0.19 340.0
2017-05-14 20:30 1.54 8.70 69 5.81 77.2 0.25 350.0
2017-05-14 20:00 1.61 8.70 68 5.96 76.8 0.33 349.0
2017-05-14 19:30 1.64 8.00 74 5.78 77.4 0.23 356.0
2017-05-14 19:00 1.61 10.53 57 5.77 77.2 0.27 1.0
2017-05-14 18:30 1.67 9.09 68 5.66 76.8 0.45 354.0
2017-05-14 18:00 1.64 9.09 75 5.49 76.1 0.39 346.0
2017-05-14 17:30 1.64 8.33 76 5.26 75.7 0.29 357.0
2017-05-14 17:00 1.54 10.53 78 4.80 75.9 0.43 5.0
2017-05-14 16:30 1.64 9.09 68 4.70 75.7 0.56 5.0
2017-05-14 16:00 1.61 9.09 71 4.59 75.7 0.56 10.0
2017-05-14 15:30 1.67 9.09 73 4.78 75.6 0.43 12.0
2017-05-14 15:00 1.71 11.11 71 4.49 75.4 0.80 5.0
2017-05-14 14:30 1.74 10.53 82 4.41 75.2 0.89 360.0
2017-05-14 14:00 1.77 8.70 77 4.09 75.2 0.82 4.0
2017-05-14 13:30 1.87 9.09 87 4.15 75.2 0.76 5.0
2017-05-14 13:00 2.00 8.70 69 4.07 75.2 0.80 360.0
2017-05-14 12:30 1.97 10.00 65 3.92 75.0 0.87 355.0
2017-05-14 12:00 1.97 11.11 72 3.88 75.0 0.89 352.0
2017-05-14 11:30 1.90 10.00 73 3.71 74.8 0.84 353.0
2017-05-14 11:00 1.87 11.11 75 3.63 74.7 0.93 358.0
2017-05-14 10:30 2.00 11.76 69 3.79 74.7 0.97 6.0
2017-05-14 10:00 1.90 8.33 74 3.55 74.8 0.86 4.0
2017-05-14 09:30 1.94 8.33 70 3.51 74.8 0.70 16.0
2017-05-14 09:00 1.90 10.53 69 3.69 74.8 0.76 0.0
2017-05-14 08:30 1.77 8.33 71 3.81 74.8 0.78 9.0
2017-05-14 08:00 1.84 10.53 69 4.17 74.7 0.78 6.0
2017-05-14 07:30 1.94 10.53 69 4.28 74.7 0.97 26.0
2017-05-14 07:00 2.00 4.65 138 4.42 74.7 0.76 14.0
2017-05-14 06:30 2.03 4.65 136 4.44 74.5 0.91 17.0
2017-05-14 06:00 2.07 4.88 136 4.59 74.5 0.91 7.0
2017-05-14 05:30 2.07 10.53 68 4.50 74.5 0.68 16.0
2017-05-14 05:00 2.30 4.44 126 4.45 74.5 0.60 6.0
2017-05-14 04:30 2.40 11.11 76 4.30 74.5 0.60 9.0
2017-05-14 04:00 2.56 4.76 141 4.21 74.8 0.47 7.0
2017-05-14 03:30 2.66 3.92 51 4.02 74.8 0.56 8.0
2017-05-14 03:00 2.89 5.13 128 4.21 74.8 0.52 359.0
2017-05-14 02:30 2.99 4.26 133 4.07 74.8 0.54 346.0
2017-05-14 02:00 3.22 4.76 130 4.24 74.8 0.43 359.0
2017-05-14 01:30 3.48 4.55 127 4.06 74.7 0.47 8.0
2017-05-14 01:00 3.08 4.55 128 4.12 74.7 0.54 0.0
2017-05-14 00:30 2.99 4.44 134 3.99 74.8 0.39 0.0
2017-05-14 00:00 2.85 4.35 143 4.04 74.8 0.31 6.0
2017-05-13 23:30 3.12 4.08 138 4.00 74.8 0.37 354.0
2017-05-13 23:00 3.18 3.92 296 3.96 74.8 0.27 0.0
2017-05-13 22:30 3.22 4.08 93 3.80 75.0 0.33 4.0
2017-05-13 22:00 2.95 3.70 316 3.75 75.0 0.41 9.0
2017-05-13 21:30 2.89 3.77 284 3.65 75.0 0.51 25.0
2017-05-13 21:00 2.43 11.11 59 3.38 75.2 0.78 27.0
2017-05-13 20:30 2.72 11.76 76 3.20 75.7 0.64 354.0
2017-05-13 20:00 2.46 3.23 147 2.96 75.9 0.74 357.0
2017-05-13 19:30 2.23 11.76 72 2.96 75.9 0.84 352.0
2017-05-13 19:00 2.03 10.53 67 2.99 76.1 0.74 347.0
2017-05-13 18:30 1.77 11.76 63 3.25 75.9 0.54 6.0
2017-05-13 18:00 2.00 11.11 66 3.17 75.9 0.58 359.0
2017-05-13 17:30 2.23 11.76 71 3.04 76.1 0.56 5.0
2017-05-13 17:00 2.13 11.76 72 2.97 76.3 0.51 16.0
2017-05-13 16:30 2.17 12.50 65 2.94 76.1 0.51 6.0
2017-05-13 16:00 2.36 12.50 59 3.12 76.1 0.49 5.0
2017-05-13 15:30 2.40 11.76 71 3.19 76.1 0.51 5.0
2017-05-13 15:00 2.46 11.76 67 3.25 76.1 0.47 8.0
2017-05-13 14:30 2.33 11.76 63 3.09 76.1 0.43 15.0
2017-05-13 14:00 2.13 11.76 57 3.30 75.9 0.37 31.0
2017-05-13 13:30 2.00 11.76 69 3.32 75.7 0.33 15.0
2017-05-13 13:00 1.80 11.76 65 3.30 75.9 0.33 25.0
2017-05-13 12:30 1.90 11.76 68 3.43 75.9 0.31 8.0
2017-05-13 12:00 1.90 11.76 74 3.61 75.9 0.25 32.0
2017-05-13 11:30 1.80 11.76 70 3.39 75.7 0.19 35.0
2017-05-13 11:00 1.90 11.76 69 3.56 75.7 0.21 37.0
2017-05-13 10:30 2.17 12.50 69 3.89 75.9 0.19 45.0
2017-05-13 10:00 2.10 12.50 64 3.83 75.9 0.17 50.0
2017-05-13 09:30 2.13 11.76 65 3.76 75.7 0.17 70.0
2017-05-13 09:00 2.20 11.76 64 3.74 75.7 0.33 52.0
2017-05-13 08:30 2.20 11.76 72 3.75 75.7 0.25 68.0
2017-05-13 08:00 2.23 11.76 71 3.84 75.7 0.23 61.0
2017-05-13 07:30 2.36 12.50 73 3.76 75.9 0.49 70.0
2017-05-13 07:00 2.40 12.50 72 3.91 75.9 0.45 74.0
2017-05-13 06:30 2.33 12.50 55 3.59 76.1 0.58 56.0
2017-05-13 06:00 2.59 12.50 64 3.88 76.1 0.58 74.0
2017-05-13 05:30 2.49 12.50 75 3.69 76.3 0.52 65.0
2017-05-13 05:00 2.59 12.50 66 3.64 76.5 0.93 58.0
2017-05-13 04:30 2.59 11.76 61 3.48 76.5 1.09 52.0
2017-05-13 04:00 2.76 12.50 56 3.66 76.1 0.86 58.0
2017-05-13 03:30 2.66 3.77 154 3.56 76.1 0.86 49.0
2017-05-13 03:00 2.95 3.85 159 3.71 76.5 0.84 41.0
2017-05-13 02:30 3.25 12.50 69 3.79 76.5 0.78 33.0
2017-05-13 02:00 3.35 3.77 157 3.69 76.3 0.66 19.0
2017-05-13 01:30 3.48 3.64 166 3.62 76.8 0.68 13.0
2017-05-13 01:00 3.28 12.50 65 3.56 77.4 0.64 20.0
2017-05-13 00:30 2.82 12.50 65 3.52 77.7 0.51 8.0
2017-05-13 00:00 2.62 3.23 170 3.35 77.7 0.54 3.0
2017-05-12 23:30 2.66 12.50 66 3.36 77.9 0.49 355.0
2017-05-12 23:00 2.56 12.50 71 3.59 78.1 0.35 338.0
2017-05-12 22:30 2.56 12.50 66 3.59 78.3 0.29 352.0
2017-05-12 22:00 2.40 12.50 65 3.43 78.4 0.27 332.0
2017-05-12 21:30 2.20 12.50 60 3.70 78.4 0.12 6.0
2017-05-12 21:00 2.10 12.50 65 3.95 78.4 0.16 359.0
2017-05-12 20:30 2.00 12.50 63 4.31 78.6 0.02 303.0
2017-05-12 20:00 2.20 12.50 65 4.99 78.8 0.04 298.0
2017-05-12 19:30 2.10 12.50 65 4.98 78.6 0.12 217.0
2017-05-12 19:00 1.97 12.50 74 4.97 78.8 0.12 215.0
2017-05-12 18:30 2.07 12.50 69 5.79 78.8 0.12 177.0
2017-05-12 18:00 2.03 12.50 72 5.52 78.8 0.16 196.0
2017-05-12 17:30 2.03 11.76 74 5.21 78.4 0.16 184.0
2017-05-12 17:00 1.90 11.76 76 4.84 78.4 0.14 180.0
2017-05-12 16:30 2.13 12.50 71 4.89 78.3 0.17 195.0
2017-05-12 16:00 2.03 11.76 80 4.49 78.1 0.06 191.0
2017-05-12 15:30 2.03 12.50 70 4.19 77.9 0.14 199.0
2017-05-12 15:00 2.20 12.50 71 4.43 77.7 0.17 184.0
2017-05-12 14:30 2.20 13.33 74 4.51 77.7 0.21 201.0
2017-05-12 14:00 2.03 12.50 72 4.23 77.7 0.12 210.0
2017-05-12 13:30 2.30 12.50 66 4.56 77.5 0.27 187.0
2017-05-12 13:00 2.13 12.50 72 3.95 77.5 0.27 203.0
2017-05-12 12:30 2.10 13.33 55 4.04 77.4 0.31 199.0
2017-05-12 12:00 2.20 13.33 72 4.02 77.2 0.37 186.0
2017-05-12 11:30 2.30 13.33 62 3.69 77.2 0.51 168.0
2017-05-12 11:00 2.13 13.33 72 3.31 77.4 0.37 162.0
2017-05-12 10:30 2.30 13.33 65 3.56 77.5 0.47 142.0
2017-05-12 10:00 2.13 13.33 67 3.44 77.7 0.35 147.0
2017-05-12 09:30 2.13 12.50 66 3.65 77.9 0.45 137.0
2017-05-12 09:00 2.03 13.33 67 3.37 77.9 0.33 121.0
2017-05-12 08:30 2.20 12.50 66 3.57 78.1 0.37 134.0
2017-05-12 08:00 2.00 13.33 69 3.52 78.1 0.37 130.0
2017-05-12 07:30 2.13 13.33 66 4.09 78.3 0.35 114.0
2017-05-12 07:00 2.00 13.33 69 4.09 78.4 0.43 114.0
2017-05-12 06:30 2.07 13.33 66 4.14 78.4 0.25 103.0
2017-05-12 06:00 2.03 13.33 69 4.23 78.4 0.23 91.0
2017-05-12 05:30 2.13 13.33 75 4.24 78.6 0.27 70.0
2017-05-12 05:00 2.13 13.33 65 4.30 78.6 0.27 63.0
2017-05-12 04:30 2.03 12.50 73 3.74 78.8 0.16 60.0
2017-05-12 04:00 2.17 13.33 68 3.81 78.6 0.25 44.0
2017-05-12 03:30 2.20 13.33 71 3.89 78.8 0.21 54.0
2017-05-12 03:00 2.10 12.50 71 3.56 78.8 0.12 14.0
2017-05-12 02:30 2.13 13.33 69 3.51 79.0 0.17 19.0
2017-05-12 02:00 1.97 13.33 65 3.53 79.0 0.10 301.0
2017-05-12 01:30 1.84 13.33 72 3.75 79.0 0.12 251.0
2017-05-12 01:00 1.71 13.33 68 4.13 79.2 0.00 156.0
2017-05-12 00:30 1.57 13.33 69 4.17 79.2 0.00 97.0
2017-05-12 00:00 1.54 12.50 71 4.67 79.3 0.02 37.0
2017-05-11 23:30 1.51 14.29 67 5.03 79.5 0.10 251.0
2017-05-11 23:00 1.57 13.33 70 5.04 79.5 0.17 265.0
2017-05-11 22:30 1.57 12.50 68 5.31 79.7 0.19 251.0
2017-05-11 22:00 1.51 12.50 70 5.38 79.9 0.23 248.0
2017-05-11 21:30 1.64 7.69 90 5.61 79.9 0.23 224.0
2017-05-11 21:00 1.54 13.33 75 5.65 80.1 0.43 212.0
2017-05-11 20:30 1.57 12.50 73 5.23 79.9 0.33 218.0
2017-05-11 20:00 1.57 14.29 71 4.55 79.7 0.29 228.0
2017-05-11 19:30 1.71 14.29 80 4.25 79.5 0.25 227.0
2017-05-11 19:00 1.84 3.45 311 4.04 79.2 0.33 210.0
2017-05-11 18:30 1.77 8.00 90 3.70 79.0 0.29 187.0
2017-05-11 18:00 1.84 12.50 71 3.72 78.8 0.31 206.0
2017-05-11 17:30 1.90 11.76 75 3.80 78.6 0.37 201.0
2017-05-11 17:00 1.90 11.76 81 3.68 78.6 0.45 209.0
2017-05-11 16:30 1.87 12.50 84 3.54 78.4 0.51 202.0
2017-05-11 16:00 1.84 13.33 84 3.47 78.4 0.47 192.0
2017-05-11 15:30 1.87 8.00 96 3.58 78.3 0.43 176.0
2017-05-11 15:00 1.80 12.50 71 3.55 78.3 0.33 174.0
2017-05-11 14:30 1.80 7.69 94 3.79 78.1 0.23 158.0
2017-05-11 14:00 1.71 8.00 90 3.70 78.1 0.33 154.0
2017-05-11 13:30 1.77 8.00 89 4.00 77.9 0.21 204.0
2017-05-11 13:00 1.90 7.69 92 4.06 77.9 0.14 185.0
2017-05-11 12:30 1.94 3.85 156 3.87 77.9 0.12 206.0
2017-05-11 12:00 2.03 3.92 159 3.97 77.9 0.12 208.0
2017-05-11 11:30 2.23 4.17 161 3.91 77.9 0.12 204.0
2017-05-11 11:00 2.13 4.08 153 3.78 77.9 0.16 184.0
2017-05-11 10:30 2.40 4.17 156 3.86 78.1 0.29 184.0
2017-05-11 10:00 2.43 4.26 151 3.78 78.1 0.21 173.0
2017-05-11 09:30 2.46 4.17 148 3.77 78.1 0.21 164.0
2017-05-11 09:00 2.43 4.17 146 3.68 78.3 0.16 147.0
2017-05-11 08:30 2.62 4.35 146 3.72 78.3 0.17 132.0
2017-05-11 08:00 2.49 4.26 150 3.62 78.4 0.12 108.0
2017-05-11 07:30 2.49 4.00 148 3.62 78.4 0.17 89.0
2017-05-11 07:00 2.69 4.26 148 3.67 78.4 0.27 73.0
2017-05-11 06:30 2.62 3.92 159 3.48 78.4 0.17 93.0
2017-05-11 06:00 2.72 4.08 152 3.45 78.4 0.21 58.0
2017-05-11 05:30 2.82 4.08 156 3.41 78.6 0.23 44.0
2017-05-11 05:00 2.79 3.85 161 3.31 78.6 0.49 14.0
2017-05-11 04:30 2.92 3.77 166 3.27 78.8 0.45 9.0
2017-05-11 04:00 2.72 3.57 170 3.25 78.8 0.49 12.0
2017-05-11 03:30 2.49 3.39 170 3.15 78.8 0.49 345.0
2017-05-11 03:00 2.26 7.41 88 3.11 79.0 0.60 342.0
2017-05-11 02:30 2.20 3.13 176 2.99 79.3 0.60 347.0
2017-05-11 02:00 2.10 8.00 93 2.95 79.5 0.58 336.0
2017-05-11 01:30 2.00 7.69 88 2.94 79.9 0.68 334.0
2017-05-11 01:00 1.87 8.00 89 2.97 79.9 0.68 337.0
2017-05-11 00:30 1.80 7.69 97 3.21 79.9 0.66 321.0
2017-05-11 00:00 1.64 7.69 96 3.50 79.7 0.60 325.0
2017-05-10 23:30 1.44 7.69 99 3.69 80.6 0.52 324.0
2017-05-10 23:00 1.35 8.00 90 4.54 81.1 0.47 332.0
2017-05-10 22:30 1.31 7.41 100 6.36 82.2 0.39 312.0
2017-05-10 22:00 1.35 8.33 90 6.61 82.2 0.35 322.0
2017-05-10 21:30 1.38 7.69 85 6.81 82.8 0.23 315.0
2017-05-10 21:00 1.41 7.14 93 6.71 82.8 0.31 322.0
2017-05-10 20:30 1.38 8.00 92 6.42 82.8 0.19 299.0
2017-05-10 20:00 1.48 7.41 92 6.62 82.6 0.12 339.0
2017-05-10 19:30 1.41 6.90 84 6.57 82.0 0.23 309.0
2017-05-10 19:00 1.25 8.00 87 6.26 81.5 0.16 325.0
2017-05-10 18:30 1.38 7.69 88 6.06 81.3 0.19 352.0
2017-05-10 18:00 1.54 7.14 88 6.49 80.8 0.17 352.0
2017-05-10 17:30 1.61 7.69 80 6.65 81.1 0.19 3.0
2017-05-10 17:00 1.48 8.00 91 6.52 80.6 0.16 10.0
2017-05-10 16:30 1.57 6.90 89 6.46 80.2 0.14 11.0
2017-05-10 16:00 1.57 7.41 79 6.70 79.9 0.19 13.0
2017-05-10 15:30 1.64 7.69 81 6.55 79.3 0.23 359.0
2017-05-10 15:00 1.57 7.41 79 6.51 79.0 0.43 355.0
2017-05-10 14:30 1.51 7.69 84 6.27 79.0 0.31 10.0
2017-05-10 14:00 1.61 7.69 91 6.22 78.8 0.23 19.0
2017-05-10 13:30 1.64 8.00 79 6.11 78.6 0.52 358.0
2017-05-10 13:00 1.67 8.00 77 6.18 78.4 0.43 352.0
2017-05-10 12:30 1.80 7.41 85 6.41 78.4 0.76 347.0
2017-05-10 12:00 1.77 7.41 84 6.31 78.3 0.87 1.0
2017-05-10 11:30 1.74 7.41 84 6.31 77.7 1.07 353.0
2017-05-10 11:00 1.84 7.69 88 6.29 77.4 1.11 355.0
2017-05-10 10:30 1.87 7.69 85 6.25 77.2 1.07 37.0
2017-05-10 10:00 1.97 8.00 86 6.28 76.6 1.17 352.0
2017-05-10 09:30 1.90 7.69 85 6.16 75.9 1.01 341.0
2017-05-10 09:00 1.97 7.14 88 6.01 75.2 0.97 356.0
2017-05-10 08:30 2.03 7.69 77 5.95 74.8 1.01 350.0
2017-05-10 08:00 2.03 7.41 78 5.64 74.7 0.78 3.0
2017-05-10 07:30 2.03 7.41 86 5.25 74.1 0.70 358.0
2017-05-10 07:00 2.00 7.69 78 4.88 73.8 0.99 354.0
2017-05-10 06:30 2.00 7.69 82 4.81 73.4 0.76 354.0
2017-05-10 06:00 2.13 8.00 92 4.83 73.4 0.68 1.0
2017-05-10 05:30 2.10 7.69 80 4.57 73.4 1.01 16.0
2017-05-10 05:00 2.17 7.69 82 4.52 73.4 0.70 18.0
2017-05-10 04:30 2.20 8.00 80 4.35 73.4 0.76 14.0
2017-05-10 04:00 2.17 8.00 90 4.26 73.6 0.89 12.0
2017-05-10 03:30 2.20 8.00 72 4.41 73.6 0.99 14.0
2017-05-10 03:00 2.17 8.00 80 4.37 73.8 0.95 13.0
2017-05-10 02:30 2.13 8.00 62 4.47 73.8 1.09 8.0
2017-05-10 02:00 2.00 8.00 77 4.58 73.9 1.07 10.0
2017-05-10 01:30 1.97 8.33 68 4.50 74.7 0.82 360.0
2017-05-10 01:00 1.84 8.00 71 4.59 74.8 0.82 350.0
2017-05-10 00:30 1.77 7.41 78 4.71 74.3 0.62 2.0
2017-05-10 00:00 1.90 7.41 77 5.42 74.8 0.60 354.0
2017-05-09 23:30 1.80 8.33 71 5.48 75.2 0.39 342.0
2017-05-09 23:00 1.80 7.69 72 5.57 75.6 0.39 314.0
2017-05-09 22:30 1.84 8.33 64 5.80 75.4 0.39 297.0
2017-05-09 22:00 1.67 7.69 70 5.83 75.2 0.06 350.0
2017-05-09 21:30 1.90 7.69 79 5.98 75.6 0.08 323.0
2017-05-09 21:00 1.80 7.41 81 5.78 76.1 0.12 293.0
2017-05-09 20:30 1.77 7.41 90 5.76 76.8 0.23 276.0
2017-05-09 20:00 1.74 8.00 75 5.55 76.5 0.16 258.0
2017-05-09 19:30 1.84 7.41 75 5.56 76.3 0.16 304.0
2017-05-09 19:00 1.87 7.69 75 5.48 75.9 0.14 282.0
2017-05-09 18:30 2.03 7.69 78 5.67 75.7 0.12 300.0
2017-05-09 18:00 2.07 7.41 88 5.48 76.1 0.12 266.0
2017-05-09 17:30 1.87 7.69 78 5.14 75.6 0.04 140.0
2017-05-09 17:00 1.94 7.69 72 5.65 75.6 0.06 131.0
2017-05-09 16:30 2.07 7.41 74 5.81 75.2 0.04 131.0
2017-05-09 16:00 1.97 7.69 77 5.56 75.4 0.08 140.0
2017-05-09 15:30 2.00 7.41 74 5.66 75.0 0.08 108.0
2017-05-09 15:00 1.90 7.41 85 5.66 74.8 0.16 93.0
2017-05-09 14:30 2.03 7.41 85 5.72 74.7 0.12 112.0
2017-05-09 14:00 2.00 7.69 81 5.50 74.5 0.08 93.0
2017-05-09 13:30 1.87 7.69 82 5.17 74.3 0.12 99.0
2017-05-09 13:00 1.84 7.69 82 4.97 74.3 0.10 77.0
2017-05-09 12:30 2.03 7.14 84 5.04 74.3 0.06 67.0
2017-05-09 12:00 2.03 7.69 80 5.10 74.1 0.17 109.0
2017-05-09 11:30 1.94 7.41 84 4.84 74.1 0.16 170.0
2017-05-09 11:00 1.87 8.00 84 4.75 74.1 0.08 103.0
2017-05-09 10:30 1.94 7.69 85 5.42 74.1 0.12 99.0
2017-05-09 10:00 1.90 7.41 88 5.54 74.1 0.14 120.0
2017-05-09 09:30 1.97 8.00 86 5.45 74.3 0.14 105.0
2017-05-09 09:00 1.94 7.69 90 5.25 74.3 0.12 139.0
2017-05-09 08:30 1.97 7.69 90 5.15 74.3 0.14 124.0
2017-05-09 08:00 1.94 8.00 88 5.22 74.1 0.14 147.0
2017-05-09 07:30 2.00 7.69 93 5.42 74.1 0.12 141.0
2017-05-09 07:00 1.94 8.00 90 5.32 74.1 0.10 133.0
2017-05-09 06:30 1.87 7.41 90 5.27 74.3 0.14 182.0
2017-05-09 06:00 2.00 8.33 83 5.26 74.3 0.06 185.0
2017-05-09 05:30 1.90 7.69 91 5.12 74.5 0.14 167.0
2017-05-09 05:00 1.97 8.33 86 5.18 74.8 0.23 103.0
2017-05-09 04:30 1.87 7.69 93 5.09 75.0 0.23 106.0
2017-05-09 04:00 1.84 7.69 95 4.94 75.0 0.04 140.0
2017-05-09 03:30 1.97 7.69 91 5.10 75.2 0.10 72.0
2017-05-09 03:00 1.90 7.41 88 5.04 75.0 0.19 101.0
2017-05-09 02:30 1.84 7.69 88 4.84 75.2 0.16 94.0
2017-05-09 02:00 1.94 8.00 75 5.11 75.2 0.10 110.0
2017-05-09 01:30 1.90 8.00 86 5.10 75.2 0.06 80.0
2017-05-09 01:00 1.84 8.00 83 4.92 75.2 0.06 318.0
2017-05-09 00:30 1.94 7.69 80 5.01 75.4 0.12 285.0
2017-05-09 00:00 1.87 7.69 86 4.86 75.4 0.08 263.0
2017-05-08 23:30 1.84 7.69 68 4.75 75.7 0.14 310.0
2017-05-08 23:00 1.80 8.33 76 4.81 75.6 0.23 270.0
2017-05-08 22:30 2.00 7.69 81 5.15 75.4 0.16 284.0
2017-05-08 22:00 1.87 7.69 80 5.12 75.7 0.25 272.0
2017-05-08 21:30 1.80 7.69 84 4.97 75.7 0.23 280.0
2017-05-08 21:00 1.90 7.41 85 4.74 75.7 0.21 211.0
2017-05-08 20:30 1.97 8.00 87 4.86 75.9 0.21 240.0
2017-05-08 20:00 1.87 8.00 81 4.65 75.6 0.27 241.0
2017-05-08 19:30 1.87 7.69 87 4.79 75.6 0.25 250.0
2017-05-08 19:00 1.80 8.70 85 4.69 75.4 0.16 205.0
2017-05-08 18:30 1.84 8.00 90 4.75 75.2 0.19 212.0
2017-05-08 18:00 1.97 7.69 90 5.03 75.2 0.17 167.0
2017-05-08 17:30 1.94 8.33 91 4.82 75.2 0.10 162.0
2017-05-08 17:00 1.90 7.69 86 4.72 74.8 0.14 232.0
2017-05-08 16:30 1.71 7.41 88 4.50 74.5 0.12 195.0
2017-05-08 16:00 1.71 7.69 82 4.39 74.1 0.10 253.0
2017-05-08 15:30 1.71 7.41 95 4.27 73.9 0.08 167.0
2017-05-08 15:00 1.84 7.69 91 4.33 73.8 0.12 181.0
2017-05-08 14:30 1.94 8.00 83 4.17 73.6 0.08 131.0
2017-05-08 14:00 1.94 7.69 93 3.84 73.6 0.06 114.0
2017-05-08 13:30 2.00 7.69 87 3.61 73.6 0.06 116.0
2017-05-08 13:00 2.00 7.69 83 3.75 73.4 0.08 133.0
2017-05-08 12:30 1.97 7.69 84 3.38 73.4 0.12 132.0
2017-05-08 12:00 2.07 2.94 275 3.34 73.4 0.10 89.0
2017-05-08 11:30 1.90 8.00 82 3.32 73.6 0.00 164.0
2017-05-08 11:00 1.90 8.33 73 3.65 73.6 0.08 21.0
2017-05-08 10:30 2.00 8.33 82 3.70 73.6 0.19 347.0
2017-05-08 10:00 1.94 7.41 79 3.88 73.6 0.10 347.0
2017-05-08 09:30 2.03 7.69 84 3.85 73.6 0.21 298.0
2017-05-08 09:00 2.13 8.00 79 3.71 73.6 0.19 346.0
2017-05-08 08:30 2.07 7.69 84 3.56 73.6 0.19 323.0
2017-05-08 08:00 2.23 2.90 236 3.54 73.4 0.19 333.0
2017-05-08 07:30 2.20 7.69 76 3.48 73.2 0.23 355.0
2017-05-08 07:00 2.10 7.69 77 3.37 73.2 0.23 332.0
2017-05-08 06:30 2.10 8.33 81 3.35 73.4 0.17 10.0
2017-05-08 06:00 2.17 7.41 77 3.45 73.4 0.10 17.0
2017-05-08 05:30 2.20 7.14 79 3.55 73.4 0.23 8.0
2017-05-08 05:00 2.13 7.41 80 3.47 73.4 0.27 27.0
2017-05-08 04:30 2.23 6.45 63 3.42 73.6 0.29 17.0
2017-05-08 04:00 2.33 6.67 68 3.51 73.8 0.43 7.0
2017-05-08 03:30 2.40 7.14 85 3.37 73.9 0.37 351.0
2017-05-08 03:00 2.33 2.99 161 3.35 74.1 0.51 357.0
2017-05-08 02:30 2.36 6.67 36 3.37 74.3 0.47 0.0
2017-05-08 02:00 2.40 7.69 74 3.37 74.5 0.49 357.0
2017-05-08 01:30 2.17 6.67 47 3.39 74.8 0.54 352.0
2017-05-08 01:00 2.23 7.14 54 3.67 75.0 0.56 354.0
2017-05-08 00:30 2.26 6.67 26 3.85 75.2 0.58 347.0
2017-05-08 00:00 2.10 7.14 45 3.89 75.6 0.62 346.0
2017-05-07 23:30 2.10 6.90 21 4.12 75.9 0.74 338.0
2017-05-07 23:00 2.13 6.67 12 4.20 76.1 0.84 334.0
2017-05-07 22:30 2.07 7.14 27 4.63 76.6 0.72 324.0
2017-05-07 22:00 2.10 7.14 23 5.17 76.5 0.52 333.0
2017-05-07 21:30 2.07 6.67 12 5.44 76.8 0.86 335.0
2017-05-07 21:00 2.07 6.45 10 5.34 76.6 0.93 340.0
2017-05-07 20:30 2.03 6.90 15 5.11 77.0 0.54 309.0
2017-05-07 20:00 1.90 4.88 323 4.79 77.0 0.49 304.0
2017-05-07 19:30 2.07 5.00 321 4.77 76.8 0.78 331.0
2017-05-07 19:00 2.20 6.90 10 4.98 76.5 0.66 301.0
2017-05-07 18:30 2.26 5.26 326 4.92 75.7 0.45 308.0
2017-05-07 18:00 2.33 7.14 9 4.89 75.2 0.62 314.0
2017-05-07 17:30 2.36 5.41 327 4.68 74.1 0.47 301.0
2017-05-07 17:00 2.43 5.41 342 4.61 73.8 0.21 311.0
2017-05-07 16:30 2.49 4.88 330 4.43 73.6 0.19 312.0
2017-05-07 16:00 2.49 4.65 331 4.47 73.4 0.23 299.0
2017-05-07 15:30 2.49 5.00 333 4.34 72.9 0.27 326.0
2017-05-07 15:00 2.59 5.56 343 4.47 72.5 0.25 326.0
2017-05-07 14:30 2.53 5.13 336 4.25 72.1 0.27 342.0
2017-05-07 14:00 2.62 7.41 34 4.37 71.8 0.25 348.0
2017-05-07 13:30 2.56 5.13 334 4.33 71.6 0.25 351.0
2017-05-07 13:00 2.59 5.26 341 4.19 71.4 0.23 4.0
2017-05-07 12:30 2.66 5.00 344 4.28 71.2 0.29 11.0
2017-05-07 12:00 2.72 5.41 344 4.24 71.2 0.25 14.0
2017-05-07 11:30 2.89 5.41 343 4.30 71.2 0.47 23.0
2017-05-07 11:00 2.99 5.41 342 4.28 71.2 0.49 13.0
2017-05-07 10:30 2.95 5.71 345 4.29 71.2 0.49 18.0
2017-05-07 10:00 3.02 5.26 336 4.39 71.4 0.37 8.0
2017-05-07 09:30 3.18 5.56 337 4.34 71.4 0.43 8.0
2017-05-07 09:00 3.18 5.41 331 4.30 71.4 0.31 357.0
2017-05-07 08:30 3.28 5.71 339 4.36 71.2 0.33 1.0
2017-05-07 08:00 3.54 5.26 333 4.28 71.2 0.31 2.0
2017-05-07 07:30 3.81 5.56 333 4.32 71.4 0.33 26.0
2017-05-07 07:00 4.10 5.71 341 4.36 71.4 0.37 17.0
2017-05-07 06:30 4.43 5.56 341 4.30 71.4 0.37 29.0
2017-05-07 06:00 4.49 5.41 335 4.34 71.4 0.54 28.0
2017-05-07 05:30 4.69 5.41 336 4.29 71.4 0.56 51.0
2017-05-07 05:00 4.43 4.17 290 4.25 71.6 0.62 30.0
2017-05-07 04:30 4.36 4.65 326 4.17 71.8 0.72 31.0
2017-05-07 04:00 4.30 4.26 310 4.12 71.8 0.58 35.0
2017-05-07 03:30 4.17 3.70 275 4.13 71.8 0.68 37.0
2017-05-07 03:00 3.90 6.67 356 4.26 72.0 0.68 24.0
2017-05-07 02:30 3.81 5.56 343 4.41 72.1 0.60 10.0
2017-05-07 02:00 3.48 5.88 339 4.49 72.3 0.62 33.0
2017-05-07 01:30 3.38 6.06 337 5.04 72.3 0.58 2.0
2017-05-07 01:00 3.15 6.25 337 5.27 72.5 0.47 351.0
2017-05-07 00:30 3.41 6.25 334 5.39 72.5 0.45 337.0
2017-05-07 00:00 3.28 6.06 339 5.39 72.7 0.35 331.0
2017-05-06 23:30 3.38 6.67 337 5.45 72.7 0.43 335.0
2017-05-06 23:00 3.41 7.41 342 5.29 73.0 0.35 331.0
2017-05-06 22:30 3.64 6.67 342 5.35 73.0 0.47 325.0
2017-05-06 22:00 3.61 6.90 342 5.28 73.0 0.35 326.0
2017-05-06 21:30 3.74 5.88 336 5.11 73.0 0.33 319.0
2017-05-06 21:00 3.61 7.41 348 5.00 72.9 0.21 291.0
2017-05-06 20:30 4.00 7.14 347 5.11 72.7 0.19 301.0
2017-05-06 20:00 4.27 5.71 333 5.04 72.5 0.23 304.0
2017-05-06 19:30 4.23 7.14 346 4.99 72.5 0.21 331.0
2017-05-06 19:00 4.20 6.67 339 4.82 72.3 0.16 358.0
2017-05-06 18:30 4.66 6.67 346 4.82 72.3 0.21 319.0
2017-05-06 18:00 4.99 7.14 343 4.91 72.1 0.10 287.0
2017-05-06 17:30 4.95 6.06 338 4.84 72.1 0.04 280.0
2017-05-06 17:00 5.41 6.90 339 4.94 72.1 0.04 102.0
2017-05-06 16:30 5.41 6.06 338 4.81 72.1 0.14 211.0
2017-05-06 16:00 5.84 6.45 336 4.97 72.1 0.10 98.0
2017-05-06 15:30 6.14 6.67 339 4.95 72.1 0.17 129.0
2017-05-06 15:00 5.97 6.45 342 4.85 72.1 0.21 109.0
2017-05-06 14:30 6.20 5.71 330 4.74 72.1 0.33 122.0
2017-05-06 14:00 6.10 6.06 333 4.68 72.1 0.27 112.0
2017-05-06 13:30 6.07 5.88 327 4.57 72.3 0.35 93.0
2017-05-06 13:00 6.20 6.06 327 4.58 72.3 0.70 92.0
2017-05-06 12:30 6.30 5.56 310 4.60 72.3 0.51 107.0
2017-05-06 12:00 6.66 6.06 316 4.58 72.5 0.62 104.0
2017-05-06 11:30 7.38 5.88 305 4.71 72.5 0.62 102.0
2017-05-06 11:00 6.76 5.13 271 4.56 72.7 0.49 78.0
2017-05-06 10:30 5.97 5.41 256 4.31 72.7 0.35 67.0
2017-05-06 10:00 5.81 4.65 263 4.19 72.9 0.62 98.0
2017-05-06 09:30 5.48 4.55 261 4.08 73.0 0.49 60.0
2017-05-06 09:00 5.05 4.88 231 3.99 73.2 0.47 65.0
2017-05-06 08:30 4.66 4.65 230 3.87 73.2 0.49 59.0
2017-05-06 08:00 4.82 4.76 219 3.91 73.2 0.31 41.0
2017-05-06 07:30 4.59 5.13 218 3.99 73.4 0.29 72.0
2017-05-06 07:00 4.76 4.76 230 4.07 73.4 0.21 49.0
2017-05-06 06:30 4.92 5.13 221 4.07 73.4 0.21 28.0
2017-05-06 06:00 4.92 4.88 232 4.11 73.4 0.21 95.0
2017-05-06 05:30 4.69 4.65 235 4.07 73.6 0.33 65.0
2017-05-06 05:00 4.76 4.76 245 4.04 73.6 0.27 69.0
2017-05-06 04:30 4.86 4.76 233 4.05 73.6 0.35 93.0
2017-05-06 04:00 4.72 4.76 254 3.98 73.8 0.33 111.0
2017-05-06 03:30 4.53 4.65 245 3.91 73.8 0.33 110.0
2017-05-06 03:00 4.59 4.44 248 3.96 73.9 0.37 96.0
2017-05-06 02:30 4.43 4.65 236 3.92 74.1 0.51 107.0
2017-05-06 02:00 4.40 4.65 246 3.92 74.1 0.49 99.0
2017-05-06 01:30 4.56 4.55 254 3.99 74.1 0.58 91.0
2017-05-06 01:00 4.56 4.76 248 4.07 74.3 0.47 95.0
2017-05-06 00:30 5.02 4.65 250 4.14 74.5 0.49 100.0
2017-05-06 00:00 4.95 4.44 263 4.13 74.5 0.45 103.0
2017-05-05 23:30 4.66 4.55 244 4.05 74.7 0.35 102.0
2017-05-05 23:00 4.53 4.26 253 3.96 74.7 0.25 80.0
2017-05-05 22:30 4.23 4.55 266 3.90 74.8 0.23 75.0
2017-05-05 22:00 4.17 4.17 239 3.91 74.8 0.23 91.0
2017-05-05 21:30 4.07 4.08 233 3.99 74.8 0.06 54.0
2017-05-05 21:00 3.77 4.08 241 3.85 74.8 0.16 64.0
2017-05-05 20:30 3.67 4.08 238 3.93 74.8 0.06 25.0
2017-05-05 20:00 3.54 4.17 236 3.88 74.8 0.10 334.0
2017-05-05 19:30 3.71 4.17 237 3.94 74.8 0.14 28.0
2017-05-05 19:00 3.84 4.08 244 3.93 74.8 0.06 2.0
2017-05-05 18:30 4.10 4.00 232 4.03 74.8 0.10 67.0
2017-05-05 18:00 3.97 3.92 261 3.98 74.7 0.17 40.0
2017-05-05 17:30 3.74 3.85 227 3.90 74.7 0.19 352.0
2017-05-05 17:00 3.97 3.70 222 3.98 74.7 0.17 29.0
2017-05-05 16:30 4.00 4.76 134 3.96 74.7 0.17 3.0
2017-05-05 16:00 4.30 4.08 219 3.99 74.5 0.12 42.0
2017-05-05 15:30 3.87 4.76 160 3.88 74.5 0.19 38.0
2017-05-05 15:00 4.00 3.92 221 3.88 74.5 0.27 31.0
2017-05-05 14:30 4.07 4.35 156 3.89 74.5 0.23 20.0
2017-05-05 14:00 3.90 4.44 150 3.80 74.5 0.19 24.0
2017-05-05 13:30 3.87 4.35 161 3.83 74.7 0.29 39.0
2017-05-05 13:00 4.04 4.35 160 3.93 74.7 0.27 50.0
2017-05-05 12:30 4.17 4.35 167 3.87 74.7 0.37 9.0
2017-05-05 12:00 3.87 4.35 160 3.77 74.7 0.37 10.0
2017-05-05 11:30 3.81 3.85 181 3.76 74.7 0.29 6.0
2017-05-05 11:00 3.87 4.26 168 3.83 74.8 0.33 24.0
2017-05-05 10:30 3.51 4.08 166 3.85 74.8 0.35 10.0
2017-05-05 10:00 3.77 4.08 175 3.85 74.8 0.33 13.0
2017-05-05 09:30 3.77 4.08 179 3.90 74.8 0.31 33.0
2017-05-05 09:00 3.74 4.08 177 3.91 74.8 0.37 31.0
2017-05-05 08:30 3.77 4.26 163 4.04 75.0 0.33 25.0
2017-05-05 08:00 3.77 3.92 156 3.98 75.0 0.51 28.0
2017-05-05 07:30 3.74 8.00 84 4.14 75.0 0.43 16.0
2017-05-05 07:00 3.87 8.00 85 4.23 75.0 0.51 24.0
2017-05-05 06:30 3.64 3.85 146 3.98 75.0 0.49 21.0
2017-05-05 06:00 3.67 3.92 144 4.01 75.2 0.49 16.0
2017-05-05 05:30 3.54 3.92 142 4.02 75.2 0.49 5.0
2017-05-05 05:00 3.48 3.85 140 3.94 75.2 0.60 9.0
2017-05-05 04:30 3.54 4.00 136 3.86 75.2 0.54 21.0
2017-05-05 04:00 3.67 3.70 139 3.93 75.2 0.64 12.0
2017-05-05 03:30 3.77 3.85 143 3.86 75.2 0.66 1.0
2017-05-05 03:00 3.84 4.55 97 3.83 75.2 0.64 11.0
2017-05-05 02:30 4.27 4.44 112 3.83 75.4 0.70 11.0
2017-05-05 02:00 4.13 4.65 95 3.87 75.6 0.64 5.0
2017-05-05 01:30 4.10 4.55 101 3.90 75.6 0.64 18.0
2017-05-05 01:00 4.07 4.44 108 3.85 75.7 0.70 26.0
2017-05-05 00:30 4.00 4.17 109 3.96 75.7 0.52 5.0
2017-05-05 00:00 3.94 4.55 97 4.08 75.9 0.56 8.0
2017-05-04 23:30 3.77 8.33 82 4.11 76.1 0.52 356.0
2017-05-04 23:00 3.67 8.33 90 4.14 76.1 0.51 4.0
2017-05-04 22:30 3.44 8.70 81 4.08 76.1 0.51 354.0
2017-05-04 22:00 3.61 4.26 100 4.13 76.1 0.51 359.0
2017-05-04 21:30 3.58 8.33 77 4.11 76.1 0.43 352.0
2017-05-04 21:00 3.44 4.35 105 4.03 76.1 0.45 355.0
2017-05-04 20:30 3.58 8.00 80 4.35 76.1 0.41 334.0
2017-05-04 20:00 3.51 8.00 82 4.25 76.1 0.49 339.0
2017-05-04 19:30 3.25 8.70 79 4.00 76.1 0.45 336.0
2017-05-04 19:00 3.22 8.00 85 4.05 76.1 0.56 341.0
2017-05-04 18:30 3.25 4.26 106 4.16 76.1 0.39 342.0
2017-05-04 18:00 3.12 4.00 111 3.90 76.1 0.41 332.0
2017-05-04 17:30 3.18 7.69 79 4.24 76.1 0.43 330.0
2017-05-04 17:00 3.05 8.00 84 4.08 75.7 0.41 328.0
2017-05-04 16:30 3.08 8.00 88 4.07 75.7 0.49 319.0
2017-05-04 16:00 3.08 7.69 75 4.13 75.7 0.33 332.0
2017-05-04 15:30 2.92 8.70 94 4.25 75.6 0.33 296.0
2017-05-04 15:00 2.95 8.33 82 4.30 75.4 0.29 312.0
2017-05-04 14:30 3.02 8.70 86 4.39 75.4 0.35 303.0
2017-05-04 14:00 2.99 8.33 88 4.59 75.4 0.25 317.0
2017-05-04 13:30 2.92 7.69 85 4.58 75.2 0.17 308.0
2017-05-04 13:00 2.76 8.70 90 4.80 75.2 0.08 296.0
2017-05-04 12:30 2.76 8.00 84 4.94 75.2 0.04 256.0
2017-05-04 12:00 2.85 8.33 94 5.35 75.2 0.10 64.0
2017-05-04 11:30 2.72 8.70 92 5.26 75.2 0.06 55.0
2017-05-04 11:00 2.79 8.70 92 5.47 75.2 0.04 66.0
2017-05-04 10:30 2.76 8.33 95 5.28 75.2 0.12 44.0
2017-05-04 10:00 2.76 9.09 96 5.28 75.2 0.04 10.0
2017-05-04 09:30 2.79 7.69 89 5.47 75.2 0.04 306.0
2017-05-04 09:00 2.79 8.00 97 5.61 75.2 0.10 13.0
2017-05-04 08:30 2.95 11.76 77 5.73 75.2 0.04 120.0
2017-05-04 08:00 2.99 8.00 90 5.57 75.2 0.06 47.0
2017-05-04 07:30 3.15 8.33 93 5.57 75.2 0.10 5.0
2017-05-04 07:00 3.22 8.33 103 5.52 75.4 0.08 345.0
2017-05-04 06:30 3.15 8.00 97 5.26 75.4 0.10 37.0
2017-05-04 06:00 3.28 8.00 96 5.16 75.4 0.14 340.0
2017-05-04 05:30 3.22 8.33 96 4.92 75.4 0.10 319.0
2017-05-04 05:00 3.35 8.70 94 4.96 75.4 0.17 329.0
2017-05-04 04:30 3.38 8.33 91 4.85 75.6 0.14 311.0
2017-05-04 04:00 3.44 8.33 96 4.98 75.6 0.17 312.0
2017-05-04 03:30 3.44 8.33 97 5.01 75.7 0.17 4.0
2017-05-04 03:00 3.48 8.00 93 4.79 75.7 0.12 346.0
2017-05-04 02:30 3.31 8.70 92 4.55 75.7 0.27 324.0
2017-05-04 02:00 3.51 8.00 86 4.84 75.9 0.21 348.0
2017-05-04 01:30 3.48 8.00 84 4.75 75.9 0.19 331.0
2017-05-04 01:00 3.48 8.33 90 4.99 76.1 0.41 343.0
2017-05-04 00:30 3.31 8.70 90 5.01 76.1 0.29 354.0
2017-05-04 00:00 3.54 8.33 97 4.97 76.1 0.25 341.0
2017-05-03 23:30 3.48 8.33 96 5.05 76.1 0.31 332.0
2017-05-03 23:00 3.35 8.33 84 4.76 76.3 0.41 325.0
2017-05-03 22:30 3.35 8.33 91 4.99 76.3 0.33 336.0
2017-05-03 22:00 3.38 8.33 85 5.03 76.5 0.43 332.0
2017-05-03 21:30 3.31 8.33 86 4.72 76.5 0.45 318.0
2017-05-03 21:00 3.18 12.50 77 4.49 76.5 0.37 315.0
2017-05-03 20:30 3.25 8.00 92 4.52 76.6 0.58 328.0
2017-05-03 20:00 3.25 8.70 93 4.57 76.6 0.47 315.0
2017-05-03 19:30 3.15 8.70 91 4.56 76.8 0.58 301.0
2017-05-03 19:00 3.05 8.70 96 4.42 76.8 0.52 312.0
2017-05-03 18:30 2.92 7.41 85 4.27 76.6 0.39 297.0
2017-05-03 18:00 2.89 7.69 90 4.21 76.6 0.23 291.0
2017-05-03 17:30 2.85 12.50 85 4.19 76.6 0.31 302.0
2017-05-03 17:00 2.89 12.50 74 4.37 76.5 0.29 275.0
2017-05-03 16:30 2.79 8.00 98 4.57 76.5 0.37 268.0
2017-05-03 16:00 2.76 7.14 72 4.65 76.5 0.33 265.0
2017-05-03 15:30 2.62 12.50 77 5.07 76.5 0.27 255.0
2017-05-03 15:00 2.53 8.70 96 5.44 76.5 0.23 240.0
2017-05-03 14:30 2.53 7.69 92 5.42 76.5 0.17 261.0
2017-05-03 14:00 2.56 8.00 93 5.41 76.3 0.17 243.0
2017-05-03 13:30 2.66 8.70 94 5.09 76.1 0.10 312.0
2017-05-03 13:00 2.59 8.33 99 4.92 76.1 0.17 211.0
2017-05-03 12:30 2.56 8.00 98 4.95 76.1 0.02 19.0
2017-05-03 12:00 2.49 8.33 99 4.65 76.1 0.04 23.0
2017-05-03 11:30 2.62 8.00 86 5.07 76.1 0.08 320.0
2017-05-03 11:00 2.53 8.33 92 5.20 75.9 0.10 78.0
2017-05-03 10:30 2.69 7.41 81 5.54 76.1 0.10 29.0
2017-05-03 10:00 2.69 5.71 50 5.52 76.1 0.17 19.0
2017-05-03 09:30 2.56 8.33 90 5.91 76.1 0.06 283.0
2017-05-03 09:00 2.66 7.69 84 5.72 76.1 0.06 340.0
2017-05-03 08:30 2.72 8.00 90 5.76 76.1 0.17 335.0
2017-05-03 08:00 2.99 8.00 92 5.93 76.1 0.17 328.0
2017-05-03 07:30 2.85 7.69 83 5.76 76.1 0.10 30.0
2017-05-03 07:00 2.82 8.00 82 5.73 76.3 0.10 302.0
2017-05-03 06:30 2.92 8.00 89 5.71 76.3 0.19 343.0
2017-05-03 06:00 3.08 8.33 90 5.67 76.5 0.16 19.0
2017-05-03 05:30 2.99 8.00 93 5.59 76.5 0.14 334.0
2017-05-03 05:00 3.02 6.25 43 5.35 76.5 0.10 6.0
2017-05-03 04:30 3.05 8.00 92 5.42 76.3 0.21 331.0
2017-05-03 04:00 3.12 8.70 89 5.34 76.3 0.21 307.0
2017-05-03 03:30 3.08 5.13 1 5.17 76.3 0.25 332.0
2017-05-03 03:00 3.31 7.69 81 5.26 76.3 0.14 333.0
2017-05-03 02:30 3.28 7.69 84 5.22 76.1 0.23 312.0
2017-05-03 02:00 3.44 8.00 91 5.45 76.1 0.23 328.0
2017-05-03 01:30 3.31 7.41 85 5.06 76.1 0.29 330.0
2017-05-03 01:00 3.38 7.69 91 4.99 76.1 0.17 354.0
2017-05-03 00:30 3.28 8.00 87 4.70 76.1 0.27 356.0
2017-05-03 00:00 3.44 7.41 91 4.76 76.1 0.29 328.0
2017-05-02 23:30 3.44 8.00 87 4.82 76.1 0.16 330.0
2017-05-02 23:00 3.41 7.69 87 4.70 76.1 0.27 319.0
2017-05-02 22:30 3.38 7.14 90 4.64 76.1 0.19 300.0
2017-05-02 22:00 3.28 7.69 93 4.60 76.1 0.17 318.0
2017-05-02 21:30 3.35 8.00 91 4.61 76.1 0.08 346.0
2017-05-02 21:00 3.38 7.69 94 4.54 76.1 0.16 294.0
2017-05-02 20:30 3.12 7.69 93 4.38 76.1 0.08 294.0
2017-05-02 20:00 3.15 8.33 94 4.46 76.1 0.12 275.0
2017-05-02 19:30 3.05 8.00 97 4.65 76.1 0.04 231.0
2017-05-02 19:00 2.99 7.69 95 5.20 75.9 0.02 16.0
2017-05-02 18:30 3.31 8.00 96 5.39 76.1 0.08 38.0
2017-05-02 18:00 3.31 7.41 103 4.95 76.1 0.10 230.0
2017-05-02 17:30 3.48 8.33 94 4.83 76.1 0.04 347.0
2017-05-02 17:00 3.35 7.69 94 4.84 76.1 0.12 102.0
2017-05-02 16:30 3.05 8.00 95 4.75 76.3 0.16 58.0
2017-05-02 16:00 2.85 8.33 93 4.81 76.3 0.19 7.0
2017-05-02 15:30 2.85 8.70 92 4.83 76.5 0.29 12.0
2017-05-02 15:00 3.08 6.06 102 4.74 76.1 0.27 10.0
2017-05-02 14:30 3.12 8.00 92 4.66 76.1 0.37 28.0
2017-05-02 14:00 3.61 8.00 96 4.77 75.9 0.47 23.0
2017-05-02 13:30 3.44 7.69 93 4.60 75.9 0.35 22.0
2017-05-02 13:00 3.41 7.69 95 4.57 75.9 0.39 30.0
2017-05-02 12:30 3.48 7.69 97 4.63 75.9 0.45 33.0
2017-05-02 12:00 3.44 7.69 94 4.61 75.7 0.35 22.0
2017-05-02 11:30 3.71 8.00 97 4.51 75.7 0.47 37.0
2017-05-02 11:00 3.58 8.00 92 4.40 75.7 0.47 36.0
2017-05-02 10:30 3.61 7.69 90 4.25 75.9 0.39 28.0
2017-05-02 10:00 3.71 7.69 91 4.37 75.9 0.54 39.0
2017-05-02 09:30 3.87 8.33 97 4.35 75.9 0.49 40.0
2017-05-02 09:00 3.97 8.00 96 4.31 75.9 0.51 34.0
2017-05-02 08:30 4.04 5.71 104 4.20 75.9 0.52 24.0
2017-05-02 08:00 4.00 8.70 92 4.16 75.9 0.56 21.0
2017-05-02 07:30 4.17 8.00 93 4.14 75.9 0.60 5.0
2017-05-02 07:00 4.27 4.65 124 4.08 75.9 0.62 14.0
2017-05-02 06:30 4.23 8.00 88 4.17 76.1 0.84 5.0
2017-05-02 06:00 4.17 4.35 141 4.12 76.1 0.68 4.0
2017-05-02 05:30 4.10 8.00 88 3.99 76.1 0.82 3.0
2017-05-02 05:00 4.13 4.44 138 4.05 76.1 0.72 4.0
2017-05-02 04:30 4.17 8.33 89 4.02 76.1 0.72 359.0
2017-05-02 04:00 4.23 8.00 94 3.98 76.1 0.80 354.0
2017-05-02 03:30 4.27 8.00 96 4.08 76.1 0.62 346.0
2017-05-02 03:00 4.69 4.26 146 4.23 76.3 0.89 344.0
2017-05-02 02:30 4.69 4.55 150 4.15 76.3 0.72 339.0
2017-05-02 02:00 4.59 4.55 150 4.17 76.3 0.80 351.0
2017-05-02 01:30 4.56 4.35 144 4.16 76.3 0.84 345.0
2017-05-02 01:00 4.92 4.55 136 4.25 76.3 0.78 346.0
2017-05-02 00:30 5.48 4.55 150 4.33 76.3 0.89 350.0
2017-05-02 00:00 5.18 4.65 148 4.31 76.3 0.80 358.0
2017-05-01 23:30 5.35 7.41 96 4.39 76.3 0.89 8.0
2017-05-01 23:00 5.25 5.41 104 4.31 76.5 0.74 1.0
2017-05-01 22:30 5.15 5.00 116 4.41 76.5 0.68 4.0
2017-05-01 22:00 5.31 5.88 93 4.55 76.3 0.76 3.0
2017-05-01 21:30 5.22 4.26 137 4.36 76.5 0.66 12.0
2017-05-01 21:00 4.99 8.00 83 4.34 76.5 0.76 359.0
2017-05-01 20:30 4.89 7.69 88 4.32 76.5 0.78 5.0
2017-05-01 20:00 4.72 4.65 128 4.34 76.3 0.72 3.0
2017-05-01 19:30 4.76 4.76 126 4.30 76.3 0.86 11.0
2017-05-01 19:00 5.02 4.55 123 4.38 76.3 0.78 12.0
2017-05-01 18:30 4.82 4.65 120 4.34 76.1 0.68 6.0
2017-05-01 18:00 4.53 5.56 99 4.25 76.3 0.64 5.0
2017-05-01 17:30 4.86 5.41 114 4.31 76.1 0.64 359.0
2017-05-01 17:00 4.66 5.56 108 4.30 76.1 0.66 356.0
2017-05-01 16:30 4.66 5.26 110 4.39 76.1 0.72 353.0
2017-05-01 16:00 4.63 8.00 95 4.35 76.1 0.66 357.0
2017-05-01 15:30 4.86 5.41 111 4.40 76.1 0.72 345.0
2017-05-01 15:00 4.66 5.56 106 4.39 76.1 0.66 352.0
2017-05-01 14:30 4.66 5.71 97 4.36 76.1 0.60 337.0
2017-05-01 14:00 4.92 6.06 99 4.49 76.1 0.62 347.0
2017-05-01 13:30 5.12 5.71 107 4.61 75.9 0.66 349.0
2017-05-01 13:00 5.02 5.41 115 4.54 75.9 0.66 341.0
2017-05-01 12:30 5.09 5.88 102 4.68 75.9 0.54 357.0
2017-05-01 12:00 5.12 5.26 106 4.64 75.9 0.62 344.0
2017-05-01 11:30 4.99 6.25 101 4.52 75.9 0.49 344.0
2017-05-01 11:00 5.02 5.41 103 4.61 75.9 0.52 359.0
2017-05-01 10:30 5.58 5.71 110 4.69 75.9 0.52 348.0
2017-05-01 10:00 5.81 5.56 112 4.88 75.9 0.60 360.0
2017-05-01 09:30 5.77 5.71 100 4.79 76.1 0.60 345.0
2017-05-01 09:00 5.38 6.06 103 4.60 76.1 0.62 353.0
2017-05-01 08:30 5.54 5.56 108 4.75 76.1 0.68 341.0
2017-05-01 08:00 5.71 5.41 104 4.81 76.1 0.56 359.0
2017-05-01 07:30 5.51 5.71 105 4.68 76.1 0.72 344.0
2017-05-01 07:00 5.18 5.88 102 4.47 76.1 0.58 350.0
2017-05-01 06:30 5.25 6.06 99 4.50 76.1 0.64 347.0
2017-05-01 06:00 5.15 4.88 105 4.45 76.1 0.56 349.0
2017-05-01 05:30 5.25 5.41 104 4.47 76.1 0.72 329.0
2017-05-01 05:00 5.22 6.90 90 4.56 76.1 0.72 338.0
2017-05-01 04:30 5.09 5.56 102 4.40 76.1 0.66 337.0
2017-05-01 04:00 4.92 4.65 103 4.32 76.1 0.64 344.0
2017-05-01 03:30 4.99 7.14 94 4.47 76.3 0.80 336.0
2017-05-01 03:00 4.66 6.90 94 4.31 76.3 0.72 327.0
2017-05-01 02:30 4.76 7.14 92 4.46 76.3 0.52 315.0
2017-05-01 02:00 4.63 7.41 90 4.42 76.3 0.54 317.0
2017-05-01 01:30 4.53 7.41 91 4.31 76.3 0.64 320.0
2017-05-01 01:00 4.53 5.88 103 4.30 76.3 0.54 313.0
2017-05-01 00:30 4.59 6.67 94 4.45 76.3 0.54 324.0
2017-05-01 00:00 4.82 6.67 97 4.54 76.5 0.49 332.0